Today's  Data File

12/11/17
Time         Wind Dir   Wind Spd  Wind Gust   Humidity    Temp In       Temp  Raw Barom   Tot Rain Wind Chill Heat Index  Dew Point   Barom SL  Press Alt  DailyRain   HourRain   24HrRain   RainRate
                            mph        mph          %         F         F         in         in         F         F         F         in         ft         in         in         in      in/hr
12:00am           179          2          2         74       74.1       36.9      29.94      40.18       36.4       40.3       29.4      30.05        -15       0.00       0.00       0.16      0.000
12:01am           179          0          2         74       74.1       36.9      29.94      40.18       36.9       40.3       29.4      30.05        -16       0.00       0.00       0.16      0.000
12:02am           179          0          1         74       74.1       36.9      29.94      40.18       36.9       40.3       29.4      30.05        -16       0.00       0.00       0.16      0.000
12:03am           179          0          0         74       74.1       36.9      29.94      40.18       36.9       40.3       29.4      30.05        -17       0.00       0.00       0.16      0.000
12:04am           179          1          2         74       74.1       36.9      29.94      40.18       36.9       40.3       29.4      30.05        -17       0.00       0.00       0.16      0.000
12:05am           179          1          2         74       74.1       36.9      29.94      40.18       36.9       40.3       29.4      30.05        -16       0.00       0.00       0.16      0.000
12:06am           184          1          3         74       74.1       36.9      29.94      40.18       36.9       40.3       29.4      30.05        -17       0.00       0.00       0.16      0.000
12:07am           184          0          2         74       74.1       36.9      29.94      40.18       36.9       40.3       29.4      30.05        -16       0.00       0.00       0.16      0.000
12:08am           184          1          1         74       74.1       36.9      29.94      40.18       36.9       40.3       29.4      30.05        -18       0.00       0.00       0.16      0.000
12:09am           176          1          2         74       74.1       36.9      29.94      40.18       36.9       40.3       29.4      30.05        -16       0.00       0.00       0.16      0.000
12:10am           176          1          2         74       74.1       36.9      29.94      40.18       36.9       40.3       29.4      30.05        -16       0.00       0.00       0.16      0.000
12:11am           176          1          2         74       74.1       36.9      29.94      40.18       36.9       40.3       29.4      30.05        -17       0.00       0.00       0.16      0.000
12:12am           176          1          2         74       74.1       36.9      29.94      40.18       36.9       40.3       29.4      30.05        -17       0.00       0.00       0.16      0.000
12:13am           176          1          2         74       74.1       36.9      29.94      40.18       36.9       40.3       29.4      30.05        -17       0.00       0.00       0.16      0.000
12:14am           153          2          3         74       74.1       36.9      29.94      40.18       36.4       40.3       29.4      30.05        -15       0.00       0.00       0.16      0.000
12:15am           153          3          3         74       74.1       36.9      29.94      40.18       34.9       40.3       29.4      30.05        -15       0.00       0.00       0.16      0.000
12:16am           147          3          5         74       74.1       36.9      29.94      40.18       34.9       40.3       29.4      30.05        -15       0.00       0.00       0.16      0.000
12:17am           147          4          4         74       74.1       36.9      29.94      40.18       33.7       40.3       29.4      30.05        -15       0.00       0.00       0.16      0.000
12:18am           146          1          4         74       74.1       36.9      29.94      40.18       36.9       40.3       29.4      30.05        -18       0.00       0.00       0.16      0.000
12:19am           146          2          2         74       74.1       37.0      29.94      40.18       36.5       40.4       29.5      30.05        -17       0.00       0.00       0.16      0.000
12:20am           193          3          3         74       74.1       37.0      29.94      40.18       35.0       40.4       29.5      30.05        -17       0.00       0.00       0.16      0.000
12:21am           194          0          3         74       74.1       37.0      29.94      40.18       37.0       40.4       29.5      30.05        -18       0.00       0.00       0.16      0.000
12:22am           161          2          3         74       74.1       36.9      29.94      40.18       36.4       40.3       29.4      30.05        -15       0.00       0.00       0.16      0.000
12:23am           161          1          2         74       74.1       36.9      29.94      40.18       36.9       40.3       29.4      30.05        -16       0.00       0.00       0.16      0.000
12:24am           148          3          4         74       74.2       37.0      29.94      40.18       35.0       40.4       29.5      30.05        -15       0.00       0.00       0.16      0.000
12:25am           151          3          5         74       74.1       37.0      29.94      40.18       35.0       40.4       29.5      30.05        -15       0.00       0.00       0.16      0.000
12:26am           145          3          4         74       74.1       37.0      29.94      40.18       35.0       40.4       29.5      30.05        -15       0.00       0.00       0.16      0.000
12:27am           178          3          4         74       74.1       37.0      29.94      40.18       35.0       40.4       29.5      30.05        -15       0.00       0.00       0.16      0.000
12:28am           178          1          4         74       74.2       37.0      29.93      40.18       37.0       40.4       29.5      30.05        -14       0.00       0.00       0.16      0.000
12:29am           144          3          4         74       74.2       37.0      29.93      40.18       35.0       40.4       29.5      30.05        -14       0.00       0.00       0.16      0.000
12:30am           178          2          3         74       74.2       37.0      29.94      40.18       36.5       40.4       29.5      30.05        -15       0.00       0.00       0.16      0.000
12:31am           169          2          4         74       74.2       37.0      29.94      40.18       36.5       40.4       29.5      30.05        -15       0.00       0.00       0.16      0.000
12:32am           169          1          2         73       74.1       37.0      29.94      40.18       37.0       40.3       29.2      30.05        -16       0.00       0.00       0.16      0.000
12:33am           169          2          2         73       74.2       37.0      29.93      40.18       36.5       40.3       29.2      30.05        -14       0.00       0.00       0.16      0.000
12:34am           169          2          2         73       74.2       37.1      29.93      40.18       36.6       40.4       29.3      30.05        -14       0.00       0.00       0.16      0.000
12:35am           154          2          3         73       74.2       37.1      29.93      40.18       36.6       40.4       29.3      30.04        -12       0.00       0.00       0.16      0.000
12:36am           154          2          3         73       74.2       37.1      29.93      40.18       36.6       40.4       29.3      30.04        -12       0.00       0.00       0.16      0.000
12:37am           154          0          3         73       74.2       37.1      29.93      40.18       37.1       40.4       29.3      30.04        -10       0.00       0.00       0.16      0.000
12:38am           135          3          4         73       74.2       37.1      29.93      40.18       35.1       40.4       29.3      30.04        -11       0.00       0.00       0.16      0.000
12:39am           148          3          3         73       74.2       37.1      29.93      40.18       35.1       40.4       29.3      30.04         -8       0.00       0.00       0.16      0.000
12:40am           134          4          5         74       74.2       37.1      29.93      40.18       34.0       40.5       29.6      30.04         -8       0.00       0.00       0.16      0.000
12:41am           179          3          4         74       74.2       37.1      29.93      40.18       35.1       40.5       29.6      30.04         -8       0.00       0.00       0.16      0.000
12:42am           203          2          3         74       74.2       37.1      29.93      40.18       36.6       40.5       29.6      30.04        -11       0.00       0.00       0.16      0.000
12:43am           174          2          3         74       74.2       37.1      29.93      40.18       36.6       40.5       29.6      30.04        -11       0.00       0.00       0.16      0.000
12:44am           198          0          3         73       74.2       37.1      29.93      40.18       37.1       40.4       29.3      30.04        -12       0.00       0.00       0.16      0.000
12:45am           145          1          4         73       74.2       37.1      29.93      40.18       37.1       40.4       29.3      30.04        -11       0.00       0.00       0.16      0.000
12:46am           166          1          2         73       74.2       37.1      29.93      40.18       37.1       40.4       29.3      30.04         -9       0.00       0.00       0.16      0.000
12:47am           166          0          1         73       74.2       37.1      29.93      40.18       37.1       40.4       29.3      30.04        -11       0.00       0.00       0.16      0.000
12:48am           166          2          2         73       74.2       37.1      29.93      40.18       36.6       40.4       29.3      30.04        -10       0.00       0.00       0.16      0.000
12:49am           166          1          2         73       74.2       37.1      29.93      40.18       37.1       40.4       29.3      30.04        -10       0.00       0.00       0.16      0.000
12:50am           166          1          2         73       74.2       37.1      29.93      40.18       37.1       40.4       29.3      30.04        -10       0.00       0.00       0.16      0.000
12:51am           165          1          2         73       74.2       37.1      29.93      40.18       37.1       40.4       29.3      30.04         -7       0.00       0.00       0.16      0.000
12:52am           165          2          2         73       74.2       37.1      29.93      40.18       36.6       40.4       29.3      30.04         -9       0.00       0.00       0.16      0.000
12:53am           160          2          3         73       74.2       37.1      29.93      40.18       36.6       40.4       29.3      30.04         -8       0.00       0.00       0.16      0.000
12:54am           160          2          2         73       74.2       37.1      29.93      40.18       36.6       40.4       29.3      30.04         -8       0.00       0.00       0.16      0.000
12:55am           138          3          6         73       74.2       37.1      29.92      40.18       35.1       40.4       29.3      30.03         -4       0.00       0.00       0.16      0.000
12:56am           138          2          3         73       74.2       37.0      29.92      40.18       36.5       40.3       29.2      30.03         -4       0.00       0.00       0.16      0.000
12:57am           138          0          2         73       74.2       37.1      29.92      40.18       37.1       40.4       29.3      30.03         -4       0.00       0.00       0.16      0.000
12:58am           107          3          3         73       74.2       37.1      29.92      40.18       35.1       40.4       29.3      30.03         -4       0.00       0.00       0.16      0.000
12:59am           105          2          3         73       74.2       37.0      29.92      40.18       36.5       40.3       29.2      30.03         -3       0.00       0.00       0.16      0.000
1:00am            105          1          2         73       74.2       37.1      29.92      40.18       37.1       40.4       29.3      30.03         -4       0.00       0.00       0.16      0.000
1:01am            105          2          2         73       74.2       37.1      29.92      40.18       36.6       40.4       29.3      30.03         -4       0.00       0.00       0.16      0.000
1:02am            127          4          4         73       74.3       37.1      29.92      40.18       34.0       40.4       29.3      30.03         -4       0.00       0.00       0.16      0.000
1:03am            144          4          5         73       74.2       37.1      29.92      40.18       34.0       40.4       29.3      30.03         -3       0.00       0.00       0.16      0.000
1:04am            153          3          5         73       74.2       37.1      29.92      40.18       35.1       40.4       29.3      30.03         -3       0.00       0.00       0.16      0.000
1:05am            130          3          4         73       74.2       37.1      29.92      40.18       35.1       40.4       29.3      30.03         -4       0.00       0.00       0.16      0.000
1:06am            164          1          4         73       74.3       37.0      29.92      40.18       37.0       40.3       29.2      30.03          0       0.00       0.00       0.16      0.000
1:07am            155          2          4         73       74.3       37.1      29.92      40.18       36.6       40.4       29.3      30.03          0       0.00       0.00       0.16      0.000
1:08am            143          5          5         73       74.3       37.1      29.92      40.18       33.1       40.4       29.3      30.03          1       0.00       0.00       0.16      0.000
1:09am            160          2          5         73       74.3       37.1      29.92      40.18       36.6       40.4       29.3      30.03          1       0.00       0.00       0.16      0.000
1:10am            184          2          3         73       74.3       37.1      29.92      40.18       36.6       40.4       29.3      30.03          1       0.00       0.00       0.16      0.000
1:11am            173          1          3         73       74.3       37.1      29.92      40.18       37.1       40.4       29.3      30.03          1       0.00       0.00       0.16      0.000
1:12am            155          2          3         73       74.3       37.1      29.92      40.18       36.6       40.4       29.3      30.03          1       0.00       0.00       0.16      0.000
1:13am            153          3          3         73       74.3       37.1      29.92      40.18       35.1       40.4       29.3      30.03          2       0.00       0.00       0.16      0.000
1:14am            139          5          5         73       74.3       37.1      29.91      40.18       33.1       40.4       29.3      30.02          5       0.00       0.00       0.16      0.000
1:15am            129          3          6         73       74.3       37.1      29.91      40.18       35.1       40.4       29.3      30.02          5       0.00       0.00       0.16      0.000
1:16am            175          1          6         73       74.3       37.1      29.91      40.18       37.1       40.4       29.3      30.02          6       0.00       0.00       0.16      0.000
1:17am            145          2          5         72       74.3       37.1      29.91      40.18       36.6       40.3       28.9      30.02          6       0.00       0.00       0.16      0.000
1:18am            148          6          6         72       74.3       37.1      29.91      40.18       32.3       40.3       28.9      30.02          7       0.00       0.00       0.16      0.000
1:19am            160          5          6         72       74.3       37.1      29.91      40.18       33.1       40.3       28.9      30.02          7       0.00       0.00       0.16      0.000
1:20am            143          5          6         72       74.3       37.1      29.91      40.18       33.1       40.3       28.9      30.02          8       0.00       0.00       0.16      0.000
1:21am            147          5          5         72       74.3       37.2      29.91      40.18       33.2       40.4       29.0      30.02         10       0.00       0.00       0.16      0.000
1:22am            143          2          5         72       74.3       37.2      29.91      40.18       36.7       40.4       29.0      30.02         11       0.00       0.00       0.16      0.000
1:23am            143          4          5         72       74.3       37.2      29.91      40.18       34.1       40.4       29.0      30.02         13       0.00       0.00       0.16      0.000
1:24am            156          3          4         72       74.3       37.2      29.91      40.18       35.2       40.4       29.0      30.02         13       0.00       0.00       0.16      0.000
1:25am            147          5          5         72       74.3       37.2      29.90      40.18       33.2       40.4       29.0      30.01         14       0.00       0.00       0.16      0.000
1:26am            170          3          5         72       74.3       37.2      29.90      40.18       35.2       40.4       29.0      30.01         14       0.00       0.00       0.16      0.000
1:27am            129          4          7         72       74.3       37.2      29.90      40.18       34.1       40.4       29.0      30.01         16       0.00       0.00       0.16      0.000
1:28am            155          3          5         71       74.3       37.3      29.90      40.18       35.3       40.4       28.8      30.01         15       0.00       0.00       0.16      0.000
1:29am            144          3          4         71       74.3       37.3      29.90      40.18       35.3       40.4       28.8      30.01         15       0.00       0.00       0.16      0.000
1:30am            122          3          5         71       74.3       37.3      29.90      40.18       35.3       40.4       28.8      30.01         17       0.00       0.00       0.16      0.000
1:31am            146          3          3         70       74.3       37.3      29.90      40.18       35.3       40.3       28.4      30.01         17       0.00       0.00       0.16      0.000
1:32am            106          3          4         70       74.3       37.3      29.90      40.18       35.3       40.3       28.4      30.01         18       0.00       0.00       0.16      0.000
1:33am            101          2          5         70       74.3       37.3      29.90      40.18       36.8       40.3       28.4      30.01         18       0.00       0.00       0.16      0.000
1:34am            139          3          5         70       74.3       37.3      29.90      40.18       35.3       40.3       28.4      30.01         19       0.00       0.00       0.16      0.000
1:35am            150          1          3         70       74.3       37.3      29.90      40.18       37.3       40.3       28.4      30.01         19       0.00       0.00       0.16      0.000
1:36am            160          1          4         70       74.3       37.3      29.90      40.18       37.3       40.3       28.4      30.01         17       0.00       0.00       0.16      0.000
1:37am            131          2          3         69       74.3       37.4      29.90      40.18       36.9       40.2       28.2      30.01         18       0.00       0.00       0.16      0.000
1:38am            131          2          3         69       74.3       37.4      29.90      40.18       36.9       40.2       28.2      30.01         18       0.00       0.00       0.16      0.000
1:39am            131          2          2         69       74.3       37.4      29.90      40.18       36.9       40.2       28.2      30.01         18       0.00       0.00       0.16      0.000
1:40am            131          1          2         69       74.3       37.4      29.90      40.18       37.4       40.2       28.2      30.01         18       0.00       0.00       0.16      0.000
1:41am            131          0          1         69       74.3       37.4      29.90      40.18       37.4       40.2       28.2      30.01         18       0.00       0.00       0.16      0.000
1:42am            155          2          4         69       74.3       37.4      29.90      40.18       36.9       40.2       28.2      30.01         15       0.00       0.00       0.16      0.000
1:43am            155          1          2         69       74.3       37.4      29.90      40.18       37.4       40.2       28.2      30.01         15       0.00       0.00       0.16      0.000
1:44am            170          1          3         68       74.3       37.4      29.91      40.18       37.4       40.1       27.8      30.02         13       0.00       0.00       0.16      0.000
1:45am            170          1          2         68       74.3       37.4      29.91      40.18       37.4       40.1       27.8      30.02         11       0.00       0.00       0.16      0.000
1:46am            293          1          3         68       74.3       37.4      29.91      40.18       37.4       40.1       27.8      30.02         11       0.00       0.00       0.16      0.000
1:47am            293          1          2         68       74.3       37.4      29.91      40.18       37.4       40.1       27.8      30.02         10       0.00       0.00       0.16      0.000
1:48am            319          2          2         68       74.3       37.5      29.91      40.18       37.0       40.2       27.9      30.02         10       0.00       0.00       0.16      0.000
1:49am            319          2          2         68       74.3       37.5      29.91      40.18       37.0       40.2       27.9      30.02          9       0.00       0.00       0.16      0.000
1:50am            319          1          2         68       74.3       37.5      29.91      40.18       37.5       40.2       27.9      30.02          9       0.00       0.00       0.16      0.000
1:51am            298          1          3         68       74.3       37.5      29.91      40.18       37.5       40.2       27.9      30.02          9       0.00       0.00       0.16      0.000
1:52am            298          1          2         69       74.3       37.5      29.91      40.18       37.5       40.3       28.3      30.02         10       0.00       0.00       0.16      0.000
1:53am            298          1          3         69       74.2       37.5      29.91      40.18       37.5       40.3       28.3      30.02          8       0.00       0.00       0.16      0.000
1:54am            298          1          2         69       74.2       37.5      29.91      40.18       37.5       40.3       28.3      30.02          8       0.00       0.00       0.16      0.000
1:55am            297          2          3         69       74.2       37.5      29.91      40.18       37.0       40.3       28.3      30.02          7       0.00       0.00       0.16      0.000
1:56am            314          1          2         69       74.2       37.5      29.91      40.18       37.5       40.3       28.3      30.02          7       0.00       0.00       0.16      0.000
1:57am            314          1          2         69       74.2       37.5      29.91      40.18       37.5       40.3       28.3      30.02          8       0.00       0.00       0.16      0.000
1:58am            290          1          4         69       74.3       37.5      29.91      40.18       37.5       40.3       28.3      30.02          8       0.00       0.00       0.16      0.000
1:59am            290          2          2         69       74.3       37.5      29.91      40.18       37.0       40.3       28.3      30.02          8       0.00       0.00       0.16      0.000
2:00am            290          0          2         69       74.3       37.5      29.91      40.18       37.5       40.3       28.3      30.02          8       0.00       0.00       0.16      0.000
2:01am            290          2          2         69       74.2       37.4      29.91      40.18       36.9       40.2       28.2      30.02          8       0.00       0.00       0.16      0.000
2:02am            290          1          2         69       74.2       37.4      29.91      40.18       37.4       40.2       28.2      30.02          8       0.00       0.00       0.16      0.000
2:03am            290          0          1         69       74.3       37.4      29.91      40.18       37.4       40.2       28.2      30.02          7       0.00       0.00       0.16      0.000
2:04am            290          1          1         69       74.3       37.4      29.91      40.18       37.4       40.2       28.2      30.02          8       0.00       0.00       0.16      0.000
2:05am            290          0          1         69       74.3       37.4      29.91      40.18       37.4       40.2       28.2      30.02          8       0.00       0.00       0.16      0.000
2:06am            290          0          0         69       74.3       37.4      29.91      40.18       37.4       40.2       28.2      30.02          8       0.00       0.00       0.16      0.000
2:07am            290          0          0         69       74.3       37.4      29.91      40.18       37.4       40.2       28.2      30.02          8       0.00       0.00       0.16      0.000
2:08am            290          0          0         69       74.3       37.4      29.91      40.18       37.4       40.2       28.2      30.02          8       0.00       0.00       0.16      0.000
2:09am            290          0          0         69       74.3       37.4      29.91      40.18       37.4       40.2       28.2      30.02          6       0.00       0.00       0.16      0.000
2:10am            290          0          0         69       74.3       37.4      29.91      40.18       37.4       40.2       28.2      30.02          6       0.00       0.00       0.16      0.000
2:11am            290          0          0         69       74.3       37.4      29.91      40.18       37.4       40.2       28.2      30.02          7       0.00       0.00       0.16      0.000
2:12am            290          0          0         69       74.3       37.4      29.91      40.18       37.4       40.2       28.2      30.02          7       0.00       0.00       0.16      0.000
2:13am            290          0          0         69       74.3       37.4      29.91      40.18       37.4       40.2       28.2      30.02          8       0.00       0.00       0.16      0.000
2:14am            290          0          0         69       74.3       37.4      29.91      40.18       37.4       40.2       28.2      30.02          8       0.00       0.00       0.16      0.000
2:15am            290          0          0         69       74.3       37.4      29.91      40.18       37.4       40.2       28.2      30.02          8       0.00       0.00       0.16      0.000
2:16am            290          0          0         69       74.3       37.4      29.91      40.18       37.4       40.2       28.2      30.02          8       0.00       0.00       0.16      0.000
2:17am            290          0          0         69       74.3       37.4      29.91      40.18       37.4       40.2       28.2      30.02          8       0.00       0.00       0.16      0.000
2:18am            290          0          0         69       74.3       37.4      29.91      40.18       37.4       40.2       28.2      30.02          9       0.00       0.00       0.16      0.000
2:19am            290          0          0         69       74.3       37.4      29.91      40.18       37.4       40.2       28.2      30.02         10       0.00       0.00       0.16      0.000
2:20am            290          0          0         69       74.3       37.4      29.91      40.18       37.4       40.2       28.2      30.02         10       0.00       0.00       0.16      0.000
2:21am            290          0          0         69       74.3       37.4      29.91      40.18       37.4       40.2       28.2      30.02         10       0.00       0.00       0.16      0.000
2:22am            290          0          0         69       74.3       37.4      29.91      40.18       37.4       40.2       28.2      30.02         11       0.00       0.00       0.16      0.000
2:23am            290          0          0         69       74.3       37.4      29.91      40.18       37.4       40.2       28.2      30.02         11       0.00       0.00       0.16      0.000
2:24am            290          0          0         69       74.3       37.4      29.91      40.18       37.4       40.2       28.2      30.02         11       0.00       0.00       0.16      0.000
2:25am            290          0          0         70       74.3       37.4      29.91      40.18       37.4       40.4       28.5      30.02         10       0.00       0.00       0.16      0.000
2:26am            290          0          0         70       74.3       37.4      29.91      40.18       37.4       40.4       28.5      30.02         10       0.00       0.00       0.16      0.000
2:27am            290          0          0         70       74.3       37.3      29.91      40.18       37.3       40.3       28.4      30.02          9       0.00       0.00       0.16      0.000
2:28am            290          0          0         70       74.3       37.3      29.91      40.18       37.3       40.3       28.4      30.02          9       0.00       0.00       0.16      0.000
2:29am            290          0          0         70       74.3       37.3      29.91      40.18       37.3       40.3       28.4      30.02          9       0.00       0.00       0.16      0.000
2:30am            290          0          0         70       74.3       37.3      29.91      40.18       37.3       40.3       28.4      30.02         10       0.00       0.00       0.16      0.000
2:31am            290          0          0         71       74.3       37.3      29.91      40.18       37.3       40.4       28.8      30.02         11       0.00       0.00       0.16      0.000
2:32am            290          0          0         71       74.3       37.3      29.91      40.18       37.3       40.4       28.8      30.02         10       0.00       0.00       0.16      0.000
2:33am            290          0          0         71       74.3       37.3      29.91      40.18       37.3       40.4       28.8      30.02         10       0.00       0.00       0.16      0.000
2:34am            290          0          0         71       74.3       37.3      29.91      40.18       37.3       40.4       28.8      30.02         10       0.00       0.00       0.16      0.000
2:35am            290          0          0         71       74.3       37.3      29.91      40.18       37.3       40.4       28.8      30.02         10       0.00       0.00       0.16      0.000
2:36am            290          0          0         71       74.3       37.3      29.91      40.18       37.3       40.4       28.8      30.02         11       0.00       0.00       0.16      0.000
2:37am            290          0          0         71       74.3       37.3      29.91      40.18       37.3       40.4       28.8      30.02         11       0.00       0.00       0.16      0.000
2:38am            290          0          0         71       74.2       37.2      29.91      40.18       37.2       40.3       28.7      30.02         12       0.00       0.00       0.16      0.000
2:39am            290          0          0         71       74.3       37.2      29.91      40.18       37.2       40.3       28.7      30.02         10       0.00       0.00       0.16      0.000
2:40am            290          0          0         71       74.3       37.2      29.91      40.18       37.2       40.3       28.7      30.02         10       0.00       0.00       0.16      0.000
2:41am            290          0          0         71       74.3       37.2      29.91      40.18       37.2       40.3       28.7      30.02          8       0.00       0.00       0.16      0.000
2:42am            290          0          0         71       74.3       37.2      29.91      40.18       37.2       40.3       28.7      30.02          8       0.00       0.00       0.16      0.000
2:43am            290          0          0         71       74.3       37.2      29.91      40.18       37.2       40.3       28.7      30.02          6       0.00       0.00       0.16      0.000
2:44am            290          0          0         71       74.3       37.2      29.91      40.18       37.2       40.3       28.7      30.02          6       0.00       0.00       0.16      0.000
2:45am            290          0          0         71       74.3       37.2      29.91      40.18       37.2       40.3       28.7      30.02          7       0.00       0.00       0.16      0.000
2:46am            290          0          0         71       74.3       37.2      29.91      40.18       37.2       40.3       28.7      30.02          7       0.00       0.00       0.16      0.000
2:47am            290          0          0         71       74.3       37.2      29.91      40.19       37.2       40.3       28.7      30.02          7       0.01       0.01       0.17      0.000
2:48am            290          0          0         71       74.3       37.2      29.91      40.19       37.2       40.3       28.7      30.02          5       0.01       0.01       0.17      0.000
2:49am            290          0          0         71       74.3       37.2      29.91      40.19       37.2       40.3       28.7      30.02          6       0.01       0.01       0.17      0.000
2:50am            290          0          0         71       74.3       37.1      29.91      40.19       37.1       40.2       28.6      30.02          6       0.01       0.01       0.17      0.000
2:51am            290          0          0         71       74.3       37.1      29.92      40.19       37.1       40.2       28.6      30.03          3       0.01       0.01       0.17      0.000
2:52am            290          0          0         71       74.3       37.1      29.92      40.19       37.1       40.2       28.6      30.03          2       0.01       0.01       0.17      0.000
2:53am            290          0          0         71       74.3       37.1      29.92      40.19       37.1       40.2       28.6      30.03          2       0.01       0.01       0.17      0.000
2:54am            290          0          0         71       74.3       37.1      29.92      40.19       37.1       40.2       28.6      30.03          1       0.01       0.01       0.17      0.000
2:55am            290          0          0         71       74.3       37.1      29.92      40.19       37.1       40.2       28.6      30.03          1       0.01       0.01       0.17      0.000
2:56am            290          0          0         71       74.3       37.0      29.92      40.19       37.0       40.1       28.5      30.03          1       0.01       0.01       0.17      0.000
2:57am            290          0          0         72       74.3       37.0      29.92      40.19       37.0       40.2       28.8      30.03         -1       0.01       0.01       0.17      0.000
2:58am            290          0          0         72       74.3       37.0      29.92      40.19       37.0       40.2       28.8      30.03         -1       0.01       0.01       0.17      0.000
2:59am            290          0          0         72       74.3       37.0      29.92      40.19       37.0       40.2       28.8      30.03         -1       0.01       0.01       0.17      0.000
3:00am            290          0          0         72       74.3       37.0      29.92      40.19       37.0       40.2       28.8      30.03         -2       0.01       0.01       0.17      0.000
3:01am            290          0          0         72       74.3       36.9      29.92      40.19       36.9       40.1       28.7      30.03         -2       0.01       0.01       0.17      0.000
3:02am            290          0          0         72       74.3       36.9      29.92      40.19       36.9       40.1       28.7      30.03         -2       0.01       0.01       0.17      0.000
3:02am            290          0          0         72       74.3       36.8      29.92      40.19       36.8       40.0       28.6      30.03         -2       0.01       0.01       0.17      0.000
3:04am            290          0          0         72       74.3       36.8      29.92      40.19       36.8       40.0       28.6      30.03         -2       0.01       0.01       0.17      0.000
3:05am            290          0          0         72       74.3       36.8      29.92      40.19       36.8       40.0       28.6      30.03         -2       0.01       0.01       0.17      0.000
3:06am            290          0          0         72       74.3       36.8      29.92      40.19       36.8       40.0       28.6      30.03         -3       0.01       0.01       0.17      0.000
3:07am            290          0          0         72       74.3       36.8      29.92      40.19       36.8       40.0       28.6      30.03         -3       0.01       0.01       0.17      0.000
3:08am            290          0          0         72       74.3       36.7      29.92      40.19       36.7       39.9       28.5      30.03         -3       0.01       0.01       0.17      0.000
3:09am            290          0          0         72       74.3       36.7      29.92      40.19       36.7       39.9       28.5      30.03         -3       0.01       0.01       0.17      0.000
3:10am            290          0          0         72       74.3       36.6      29.92      40.19       36.6       39.8       28.4      30.03         -1       0.01       0.01       0.17      0.000
3:11am            290          0          0         72       74.3       36.6      29.92      40.19       36.6       39.8       28.4      30.03          0       0.01       0.01       0.17      0.000
3:12am            290          0          0         72       74.3       36.6      29.92      40.19       36.6       39.8       28.4      30.03          0       0.01       0.01       0.17      0.000
3:13am            290          0          0         72       74.3       36.6      29.92      40.19       36.6       39.8       28.4      30.03          0       0.01       0.01       0.17      0.000
3:14am            290          0          0         72       74.3       36.6      29.92      40.19       36.6       39.8       28.4      30.03         -1       0.01       0.01       0.17      0.000
3:15am            290          0          0         72       74.3       36.6      29.92      40.19       36.6       39.8       28.4      30.03         -3       0.01       0.01       0.17      0.000
3:16am            290          0          0         72       74.3       36.6      29.92      40.19       36.6       39.8       28.4      30.03         -3       0.01       0.01       0.17      0.000
3:17am            290          0          0         72       74.3       36.6      29.92      40.19       36.6       39.8       28.4      30.03         -2       0.01       0.01       0.17      0.000
3:18am            290          0          0         72       74.3       36.5      29.92      40.19       36.5       39.7       28.3      30.03         -2       0.01       0.01       0.17      0.000
3:19am            290          0          0         72       74.3       36.5      29.92      40.19       36.5       39.7       28.3      30.03         -2       0.01       0.01       0.17      0.000
3:20am            290          0          0         72       74.3       36.5      29.92      40.19       36.5       39.7       28.3      30.03          3       0.01       0.01       0.17      0.000
3:21am            290          0          0         72       74.3       36.5      29.92      40.19       36.5       39.7       28.3      30.03          4       0.01       0.01       0.17      0.000
3:22am            290          0          0         72       74.3       36.5      29.92      40.19       36.5       39.7       28.3      30.03          3       0.01       0.01       0.17      0.000
3:23am            290          0          0         72       74.3       36.5      29.92      40.19       36.5       39.7       28.3      30.03          3       0.01       0.01       0.17      0.000
3:24am            290          0          0         72       74.4       36.4      29.92      40.19       36.4       39.6       28.2      30.03          2       0.01       0.01       0.17      0.000
3:25am            290          0          0         73       74.4       36.4      29.91      40.19       36.4       39.7       28.6      30.02          5       0.01       0.01       0.17      0.000
3:26am            290          0          0         73       74.3       36.4      29.91      40.19       36.4       39.7       28.6      30.02          7       0.01       0.01       0.17      0.000
3:27am            290          0          0         73       74.4       36.4      29.91      40.19       36.4       39.7       28.6      30.02          8       0.01       0.01       0.17      0.000
3:28am            290          0          0         73       74.4       36.4      29.91      40.19       36.4       39.7       28.6      30.02          6       0.01       0.01       0.17      0.000
3:29am            290          0          0         73       74.4       36.4      29.91      40.19       36.4       39.7       28.6      30.02          6       0.01       0.01       0.17      0.000
3:30am            290          0          0         73       74.3       36.4      29.91      40.19       36.4       39.7       28.6      30.02          5       0.01       0.01       0.17      0.000
3:31am            290          0          0         73       74.4       36.4      29.91      40.19       36.4       39.7       28.6      30.02          5       0.01       0.01       0.17      0.000
3:32am            290          0          0         73       74.3       36.3      29.91      40.19       36.3       39.6       28.5      30.02          6       0.01       0.01       0.17      0.000
3:33am            290          0          0         73       74.3       36.3      29.91      40.19       36.3       39.6       28.5      30.02          6       0.01       0.01       0.17      0.000
3:34am            290          0          0         73       74.3       36.3      29.91      40.19       36.3       39.6       28.5      30.02          6       0.01       0.01       0.17      0.000
3:35am            290          0          0         73       74.3       36.3      29.91      40.19       36.3       39.6       28.5      30.02          5       0.01       0.01       0.17      0.000
3:36am            290          0          0         73       74.3       36.3      29.91      40.19       36.3       39.6       28.5      30.02          5       0.01       0.01       0.17      0.000
3:37am            290          0          0         73       74.4       36.3      29.91      40.19       36.3       39.6       28.5      30.02          5       0.01       0.01       0.17      0.000
3:38am            290          0          0         73       74.4       36.2      29.92      40.19       36.2       39.5       28.4      30.03          2       0.01       0.01       0.17      0.000
3:39am            290          0          0         73       74.4       36.2      29.92      40.19       36.2       39.5       28.4      30.03          4       0.01       0.01       0.17      0.000
3:40am            290          0          0         73       74.4       36.2      29.91      40.19       36.2       39.5       28.4      30.02          5       0.01       0.01       0.17      0.000
3:41am            290          0          0         73       74.4       36.2      29.91      40.19       36.2       39.5       28.4      30.02          5       0.01       0.01       0.17      0.000
3:42am            290          0          0         73       74.4       36.2      29.91      40.19       36.2       39.5       28.4      30.02          5       0.01       0.01       0.17      0.000
3:43am            290          0          0         73       74.4       36.2      29.92      40.19       36.2       39.5       28.4      30.03          4       0.01       0.01       0.17      0.000
3:44am            290          0          0         73       74.4       36.2      29.92      40.19       36.2       39.5       28.4      30.03          2       0.01       0.01       0.17      0.000
3:45am            290          0          0         73       74.4       36.2      29.92      40.19       36.2       39.5       28.4      30.03          2       0.01       0.01       0.17      0.000
3:46am            290          0          0         73       74.4       36.1      29.92      40.19       36.1       39.4       28.3      30.03          3       0.01       0.01       0.17      0.000
3:47am            290          0          0         73       74.4       36.1      29.92      40.19       36.1       39.4       28.3      30.03          2       0.01       0.01       0.17      0.000
3:48am            290          0          0         73       74.4       36.1      29.92      40.19       36.1       39.4       28.3      30.03          2       0.01       0.00       0.17      0.000
3:49am            290          0          0         73       74.3       36.0      29.92      40.19       36.0       39.3       28.2      30.03          3       0.01       0.00       0.17      0.000
3:50am            290          0          0         73       74.3       36.0      29.92      40.19       36.0       39.3       28.2      30.03          3       0.01       0.00       0.17      0.000
3:51am            290          0          0         73       74.3       36.0      29.92      40.19       36.0       39.3       28.2      30.03          3       0.01       0.00       0.17      0.000
3:52am            290          0          0         73       74.3       36.0      29.91      40.19       36.0       39.3       28.2      30.02          5       0.01       0.00       0.17      0.000
3:53am            290          0          0         73       74.3       35.9      29.91      40.19       35.9       39.2       28.1      30.02          5       0.01       0.00       0.17      0.000
3:54am            290          0          0         73       74.4       35.9      29.91      40.19       35.9       39.2       28.1      30.02          5       0.01       0.00       0.17      0.000
3:55am            290          0          0         73       74.4       35.9      29.91      40.19       35.9       39.2       28.1      30.02          5       0.01       0.00       0.17      0.000
3:56am            290          0          0         73       74.3       35.8      29.91      40.19       35.8       39.1       28.0      30.02          5       0.01       0.00       0.17      0.000
3:57am            290          0          0         73       74.4       35.8      29.92      40.19       35.8       39.1       28.0      30.03          3       0.01       0.00       0.17      0.000
3:58am            290          0          0         73       74.4       35.7      29.92      40.19       35.7       39.0       27.9      30.03          3       0.01       0.00       0.17      0.000
3:59am            290          0          0         73       74.4       35.7      29.92      40.19       35.7       39.0       27.9      30.03          2       0.01       0.00       0.17      0.000
4:00am            290          0          0         73       74.3       35.6      29.92      40.19       35.6       38.9       27.8      30.03          4       0.01       0.00       0.17      0.000
4:01am            290          0          0         73       74.4       35.6      29.92      40.19       35.6       38.9       27.8      30.03          4       0.01       0.00       0.17      0.000
4:02am            290          0          0         73       74.3       35.6      29.92      40.19       35.6       38.9       27.8      30.03          3       0.01       0.00       0.17      0.000
4:03am            290          0          0         73       74.3       35.5      29.92      40.19       35.5       38.8       27.7      30.03          3       0.01       0.00       0.17      0.000
4:04am            290          0          0         73       74.4       35.5      29.91      40.19       35.5       38.8       27.7      30.02          5       0.01       0.00       0.17      0.000
4:05am            290          0          0         73       74.4       35.4      29.92      40.19       35.4       38.7       27.6      30.03          4       0.01       0.00       0.17      0.000
4:06am            290          0          0         73       74.3       35.4      29.92      40.19       35.4       38.7       27.6      30.03          2       0.01       0.00       0.17      0.000
4:07am            290          0          0         74       74.4       35.3      29.92      40.19       35.3       38.7       27.9      30.03          1       0.01       0.00       0.17      0.000
4:08am            290          0          0         74       74.4       35.2      29.92      40.19       35.2       38.6       27.8      30.03          1       0.01       0.00       0.17      0.000
4:09am            290          0          0         74       74.4       35.2      29.92      40.19       35.2       38.6       27.8      30.03          2       0.01       0.00       0.17      0.000
4:10am            290          0          0         74       74.4       35.1      29.92      40.19       35.1       38.5       27.7      30.03          2       0.01       0.00       0.17      0.000
4:11am            290          0          0         74       74.4       35.1      29.92      40.19       35.1       38.5       27.7      30.03          2       0.01       0.00       0.17      0.000
4:12am            290          0          0         74       74.4       35.0      29.92      40.19       35.0       38.4       27.6      30.03         -1       0.01       0.00       0.17      0.000
4:13am            290          0          0         75       74.4       35.0      29.92      40.19       35.0       38.6       27.9      30.03         -1       0.01       0.00       0.17      0.000
4:14am            290          0          0         75       74.4       34.9      29.92      40.19       34.9       38.5       27.8      30.03         -1       0.01       0.00       0.17      0.000
4:15am            290          0          0         75       74.4       34.8      29.92      40.19       34.8       38.4       27.7      30.03          0       0.01       0.00       0.17      0.000
4:16am            290          0          0         75       74.4       34.8      29.92      40.19       34.8       38.4       27.7      30.03          0       0.01       0.00       0.17      0.000
4:17am            290          0          0         75       74.4       34.7      29.92      40.19       34.7       38.3       27.6      30.03         -2       0.01       0.00       0.17      0.000
4:18am            290          0          0         75       74.4       34.7      29.92      40.19       34.7       38.3       27.6      30.03         -3       0.01       0.00       0.17      0.000
4:19am            290          0          0         75       74.4       34.6      29.92      40.19       34.6       38.2       27.5      30.03         -3       0.01       0.00       0.17      0.000
4:20am            290          0          0         75       74.4       34.6      29.92      40.19       34.6       38.2       27.5      30.03         -2       0.01       0.00       0.17      0.000
4:21am            290          0          0         75       74.4       34.5      29.92      40.19       34.5       38.1       27.4      30.03         -2       0.01       0.00       0.17      0.000
4:22am            290          0          0         75       74.4       34.4      29.92      40.19       34.4       38.0       27.3      30.03         -2       0.01       0.00       0.17      0.000
4:23am            290          0          0         75       74.3       34.4      29.92      40.19       34.4       38.0       27.3      30.03         -1       0.01       0.00       0.17      0.000
4:24am            290          0          0         75       74.4       34.4      29.92      40.19       34.4       38.0       27.3      30.03         -1       0.01       0.00       0.17      0.000
4:25am            290          0          0         75       74.4       34.3      29.92      40.19       34.3       37.9       27.2      30.03         -1       0.01       0.00       0.17      0.000
4:26am            290          0          0         75       74.4       34.3      29.92      40.19       34.3       37.9       27.2      30.03         -4       0.01       0.00       0.17      0.000
4:27am            290          0          0         75       74.4       34.2      29.92      40.19       34.2       37.8       27.1      30.03         -4       0.01       0.00       0.17      0.000
4:28am            290          0          0         76       74.4       34.2      29.93      40.19       34.2       37.9       27.4      30.04         -7       0.01       0.00       0.17      0.000
4:29am            290          0          0         76       74.4       34.1      29.93      40.19       34.1       37.8       27.3      30.04         -7       0.01       0.00       0.17      0.000
4:30am            290          0          0         76       74.3       34.1      29.93      40.19       34.1       37.8       27.3      30.04         -6       0.01       0.00       0.17      0.000
4:31am            290          0          0         76       74.3       34.1      29.93      40.19       34.1       37.8       27.3      30.04         -5       0.01       0.00       0.17      0.000
4:32am            290          0          0         76       74.3       34.0      29.93      40.19       34.0       37.7       27.2      30.04         -5       0.01       0.00       0.17      0.000
4:33am            290          0          0         76       74.3       34.0      29.93      40.19       34.0       37.7       27.2      30.04         -6       0.01       0.00       0.17      0.000
4:34am            290          0          0         76       74.3       34.0      29.93      40.19       34.0       37.7       27.2      30.04         -6       0.01       0.00       0.17      0.000
4:35am            290          0          0         76       74.3       33.9      29.93      40.19       33.9       37.6       27.1      30.04         -6       0.01       0.00       0.17      0.000
4:36am            290          0          0         76       74.3       33.9      29.93      40.19       33.9       37.6       27.1      30.04         -8       0.01       0.00       0.17      0.000
4:37am            290          0          0         76       74.3       33.9      29.93      40.19       33.9       37.6       27.1      30.04         -7       0.01       0.00       0.17      0.000
4:38am            290          0          0         77       74.3       33.8      29.93      40.19       33.8       37.6       27.4      30.04         -8       0.01       0.00       0.17      0.000
4:39am            290          0          0         77       74.3       33.8      29.93      40.19       33.8       37.6       27.4      30.04         -8       0.01       0.00       0.17      0.000
4:40am            290          0          0         77       74.3       33.8      29.93      40.19       33.8       37.6       27.4      30.04         -5       0.01       0.00       0.17      0.000
4:41am            290          0          0         77       74.3       33.7      29.93      40.19       33.7       37.5       27.3      30.04         -5       0.01       0.00       0.17      0.000
4:42am            290          0          0         77       74.3       33.7      29.93      40.19       33.7       37.5       27.3      30.04         -6       0.01       0.00       0.17      0.000
4:43am            290          0          0         77       74.3       33.7      29.93      40.19       33.7       37.5       27.3      30.04         -6       0.01       0.00       0.17      0.000
4:44am            290          0          0         77       74.3       33.7      29.93      40.19       33.7       37.5       27.3      30.04         -6       0.01       0.00       0.17      0.000
4:45am            290          0          0         77       74.3       33.6      29.93      40.19       33.6       37.4       27.2      30.04         -6       0.01       0.00       0.17      0.000
4:46am            290          0          0         77       74.3       33.6      29.93      40.19       33.6       37.4       27.2      30.04         -6       0.01       0.00       0.17      0.000
4:47am            290          0          0         77       74.3       33.6      29.93      40.19       33.6       37.4       27.2      30.04         -6       0.01       0.00       0.17      0.000
4:48am            290          0          0         77       74.3       33.5      29.93      40.19       33.5       37.3       27.1      30.04         -5       0.01       0.00       0.17      0.000
4:49am            290          0          0         77       74.3       33.5      29.93      40.19       33.5       37.3       27.1      30.04         -5       0.01       0.00       0.17      0.000
4:50am            290          0          0         77       74.3       33.5      29.93      40.19       33.5       37.3       27.1      30.04         -5       0.01       0.00       0.17      0.000
4:51am            290          0          0         78       74.3       33.5      29.93      40.19       33.5       37.5       27.4      30.04         -5       0.01       0.00       0.17      0.000
4:52am            290          0          0         78       74.3       33.5      29.93      40.19       33.5       37.5       27.4      30.04         -5       0.01       0.00       0.17      0.000
4:53am            290          0          0         78       74.3       33.4      29.93      40.19       33.4       37.4       27.3      30.04         -5       0.01       0.00       0.17      0.000
4:54am            290          0          0         78       74.3       33.4      29.93      40.19       33.4       37.4       27.3      30.04         -6       0.01       0.00       0.17      0.000
4:55am            290          0          0         78       74.3       33.4      29.93      40.19       33.4       37.4       27.3      30.04        -10       0.01       0.00       0.17      0.000
4:56am            290          0          0         78       74.3       33.4      29.93      40.19       33.4       37.4       27.3      30.04        -10       0.01       0.00       0.17      0.000
4:57am            290          0          0         79       74.3       33.4      29.93      40.19       33.4       37.5       27.6      30.04         -9       0.01       0.00       0.17      0.000
4:58am            290          0          0         79       74.3       33.3      29.93      40.19       33.3       37.4       27.5      30.04         -9       0.01       0.00       0.17      0.000
4:59am            290          0          0         79       74.3       33.3      29.93      40.19       33.3       37.4       27.5      30.04        -10       0.01       0.00       0.17      0.000
5:00am            290          0          0         79       74.3       33.3      29.93      40.19       33.3       37.4       27.5      30.04        -12       0.01       0.00       0.17      0.000
5:01am            290          0          0         79       74.3       33.2      29.93      40.19       33.2       37.3       27.4      30.04        -12       0.01       0.00       0.17      0.000
5:02am            290          0          0         79       74.3       33.2      29.93      40.19       33.2       37.3       27.4      30.04        -13       0.01       0.00       0.17      0.000
5:03am            290          0          0         79       74.3       33.2      29.93      40.19       33.2       37.3       27.4      30.04        -13       0.01       0.00       0.17      0.000
5:04am            290          0          0         79       74.3       33.2      29.93      40.19       33.2       37.3       27.4      30.05        -14       0.01       0.00       0.17      0.000
5:05am            290          0          0         79       74.3       33.2      29.94      40.19       33.2       37.3       27.4      30.05        -15       0.01       0.00       0.17      0.000
5:06am            290          0          0         80       74.3       33.1      29.94      40.19       33.1       37.3       27.6      30.05        -15       0.01       0.00       0.17      0.000
5:07am            290          0          0         80       74.3       33.1      29.93      40.19       33.1       37.3       27.6      30.04        -13       0.01       0.00       0.17      0.000
5:08am            290          0          0         80       74.3       33.1      29.93      40.19       33.1       37.3       27.6      30.04        -13       0.01       0.00       0.17      0.000
5:09am            290          0          0         80       74.3       33.1      29.93      40.19       33.1       37.3       27.6      30.04        -12       0.01       0.00       0.17      0.000
5:10am            290          0          0         80       74.3       33.1      29.93      40.19       33.1       37.3       27.6      30.04        -11       0.01       0.00       0.17      0.000
5:11am            290          0          0         80       74.3       33.0      29.93      40.19       33.0       37.2       27.5      30.04        -11       0.01       0.00       0.17      0.000
5:12am            290          0          0         80       74.3       33.0      29.93      40.19       33.0       37.2       27.5      30.04        -11       0.01       0.00       0.17      0.000
5:13am            290          0          0         80       74.3       33.0      29.93      40.19       33.0       37.2       27.5      30.04        -12       0.01       0.00       0.17      0.000
5:14am            290          0          0         80       74.3       33.0      29.93      40.19       33.0       37.2       27.5      30.04        -12       0.01       0.00       0.17      0.000
5:15am            290          0          0         80       74.3       33.0      29.93      40.19       33.0       37.2       27.5      30.04         -9       0.01       0.00       0.17      0.000
5:16am            290          0          0         80       74.3       32.9      29.93      40.19       32.9       37.1       27.4      30.04         -9       0.01       0.00       0.17      0.000
5:17am            290          0          0         80       74.3       32.9      29.93      40.19       32.9       37.1       27.4      30.04        -11       0.01       0.00       0.17      0.000
5:18am            290          0          0         81       74.3       32.9      29.93      40.19       32.9       37.3       27.7      30.04        -10       0.01       0.00       0.17      0.000
5:19am            290          0          0         81       74.2       32.9      29.93      40.19       32.9       37.3       27.7      30.04        -13       0.01       0.00       0.17      0.000
5:20am            290          0          0         81       74.2       32.9      29.93      40.19       32.9       37.3       27.7      30.04        -13       0.01       0.00       0.17      0.000
5:21am            290          0          0         82       74.2       32.9      29.94      40.19       32.9       37.4       28.0      30.05        -15       0.01       0.00       0.17      0.000
5:22am            290          0          0         81       74.2       32.9      29.94      40.19       32.9       37.3       27.7      30.05        -19       0.01       0.00       0.17      0.000
5:23am            290          0          0         82       74.2       32.9      29.94      40.19       32.9       37.4       28.0      30.05        -19       0.01       0.00       0.17      0.000
5:24am            290          0          0         82       74.2       32.9      29.94      40.19       32.9       37.4       28.0      30.05        -19       0.01       0.00       0.17      0.000
5:25am            290          0          0         82       74.2       32.9      29.94      40.19       32.9       37.4       28.0      30.05        -20       0.01       0.00       0.17      0.000
5:26am            290          0          0         82       74.2       32.9      29.94      40.19       32.9       37.4       28.0      30.05        -17       0.01       0.00       0.17      0.000
5:27am            290          0          0         82       74.2       32.9      29.94      40.19       32.9       37.4       28.0      30.05        -16       0.01       0.00       0.17      0.000
5:28am            290          0          0         82       74.2       32.9      29.94      40.19       32.9       37.4       28.0      30.05        -16       0.01       0.00       0.17      0.000
5:29am            290          0          0         82       74.2       32.9      29.94      40.19       32.9       37.4       28.0      30.05        -15       0.01       0.00       0.17      0.000
5:30am            290          0          0         83       74.2       32.9      29.94      40.19       32.9       37.5       28.3      30.05        -16       0.01       0.00       0.17      0.000
5:31am            290          0          0         83       74.2       32.9      29.94      40.19       32.9       37.5       28.3      30.05        -17       0.01       0.00       0.17      0.000
5:32am            290          0          0         83       74.2       33.0      29.94      40.19       33.0       37.6       28.4      30.05        -18       0.01       0.00       0.17      0.000
5:33am            290          0          0         83       74.2       33.0      29.94      40.19       33.0       37.6       28.4      30.05        -18       0.01       0.00       0.17      0.000
5:34am            290          0          0         83       74.2       33.0      29.94      40.19       33.0       37.6       28.4      30.05        -18       0.01       0.00       0.17      0.000
5:35am            290          0          0         83       74.2       33.0      29.94      40.19       33.0       37.6       28.4      30.05        -18       0.01       0.00       0.17      0.000
5:36am            290          0          0         83       74.2       33.0      29.94      40.19       33.0       37.6       28.4      30.05        -18       0.01       0.00       0.17      0.000
5:37am            290          0          0         83       74.2       33.0      29.94      40.19       33.0       37.6       28.4      30.05        -18       0.01       0.00       0.17      0.000
5:38am            290          0          0         83       74.2       33.0      29.94      40.19       33.0       37.6       28.4      30.05        -19       0.01       0.00       0.17      0.000
5:39am            290          0          0         83       74.2       33.0      29.94      40.19       33.0       37.6       28.4      30.05        -20       0.01       0.00       0.17      0.000
5:40am            290          0          0         83       74.2       33.0      29.94      40.19       33.0       37.6       28.4      30.05        -21       0.01       0.00       0.17      0.000
5:41am            290          0          0         83       74.2       33.0      29.94      40.19       33.0       37.6       28.4      30.05        -21       0.01       0.00       0.17      0.000
5:42am            290          0          0         83       74.2       33.0      29.94      40.19       33.0       37.6       28.4      30.05        -21       0.01       0.00       0.17      0.000
5:43am            290          0          0         83       74.2       33.0      29.94      40.19       33.0       37.6       28.4      30.05        -20       0.01       0.00       0.17      0.000
5:44am            290          0          0         83       74.2       33.0      29.94      40.19       33.0       37.6       28.4      30.05        -20       0.01       0.00       0.17      0.000
5:45am            290          0          0         83       74.2       33.0      29.94      40.19       33.0       37.6       28.4      30.05        -20       0.01       0.00       0.17      0.000
5:46am            290          0          0         83       74.2       33.0      29.94      40.19       33.0       37.6       28.4      30.05        -22       0.01       0.00       0.17      0.000
5:47am            290          0          0         83       74.2       33.0      29.94      40.19       33.0       37.6       28.4      30.06        -23       0.01       0.00       0.17      0.000
5:48am            290          0          0         84       74.2       33.0      29.94      40.19       33.0       37.8       28.7      30.06        -23       0.01       0.00       0.17      0.000
5:49am            290          0          0         84       74.2       33.0      29.94      40.19       33.0       37.8       28.7      30.06        -23       0.01       0.00       0.17      0.000
5:50am            290          0          0         84       74.2       33.0      29.94      40.19       33.0       37.8       28.7      30.06        -23       0.01       0.00       0.17      0.000
5:51am            290          0          0         84       74.2       33.1      29.94      40.19       33.1       37.9       28.8      30.05        -22       0.01       0.00       0.17      0.000
5:52am            290          0          0         84       74.2       33.1      29.94      40.19       33.1       37.9       28.8      30.05        -22       0.01       0.00       0.17      0.000
5:53am            290          0          0         84       74.2       33.1      29.94      40.19       33.1       37.9       28.8      30.06        -23       0.01       0.00       0.17      0.000
5:54am            290          0          0         84       74.2       33.1      29.94      40.19       33.1       37.9       28.8      30.06        -23       0.01       0.00       0.17      0.000
5:55am            290          0          0         84       74.2       33.1      29.94      40.19       33.1       37.9       28.8      30.06        -23       0.01       0.00       0.17      0.000
5:56am            290          0          0         84       74.2       33.1      29.95      40.19       33.1       37.9       28.8      30.06        -24       0.01       0.00       0.17      0.000
5:57am            290          0          0         84       74.2       33.1      29.95      40.19       33.1       37.9       28.8      30.06        -25       0.01       0.00       0.17      0.000
5:58am            290          0          0         84       74.2       33.1      29.95      40.19       33.1       37.9       28.8      30.06        -27       0.01       0.00       0.17      0.000
5:59am            290          0          0         84       74.2       33.2      29.95      40.19       33.2       38.0       28.9      30.06        -26       0.01       0.00       0.17      0.000
6:00am            290          0          0         84       74.2       33.2      29.95      40.19       33.2       38.0       28.9      30.06        -27       0.01       0.00       0.17      0.000
6:01am            290          0          0         84       74.2       33.2      29.95      40.19       33.2       38.0       28.9      30.06        -25       0.01       0.00       0.17      0.000
6:02am            290          0          0         84       74.2       33.2      29.95      40.19       33.2       38.0       28.9      30.06        -26       0.01       0.00       0.17      0.000
6:03am            290          0          0         84       74.2       33.2      29.95      40.19       33.2       38.0       28.9      30.06        -26       0.01       0.00       0.17      0.000
6:04am            290          0          0         84       74.2       33.2      29.95      40.19       33.2       38.0       28.9      30.06        -27       0.01       0.00       0.17      0.000
6:05am            290          0          0         84       74.2       33.2      29.95      40.19       33.2       38.0       28.9      30.06        -26       0.01       0.00       0.17      0.000
6:06am            290          0          0         84       74.2       33.2      29.95      40.19       33.2       38.0       28.9      30.06        -27       0.01       0.00       0.17      0.000
6:07am            290          0          0         84       74.2       33.2      29.95      40.19       33.2       38.0       28.9      30.06        -27       0.01       0.00       0.17      0.000
6:08am            290          0          0         84       74.2       33.2      29.95      40.19       33.2       38.0       28.9      30.06        -27       0.01       0.00       0.17      0.000
6:09am            290          0          0         84       74.2       33.2      29.94      40.19       33.2       38.0       28.9      30.05        -22       0.01       0.00       0.17      0.000
6:10am            290          0          0         84       74.2       33.2      29.94      40.19       33.2       38.0       28.9      30.05        -22       0.01       0.00       0.17      0.000
6:11am            290          0          0         84       74.2       33.2      29.95      40.19       33.2       38.0       28.9      30.06        -24       0.01       0.00       0.17      0.000
6:12am            290          0          0         84       74.2       33.3      29.95      40.19       33.3       38.1       29.0      30.06        -24       0.01       0.00       0.17      0.000
6:13am            290          0          0         84       74.2       33.3      29.94      40.19       33.3       38.1       29.0      30.05        -22       0.01       0.00       0.17      0.000
6:14am            290          0          0         85       74.2       33.3      29.94      40.19       33.3       38.2       29.3      30.05        -22       0.01       0.00       0.17      0.000
6:15am            290          0          0         85       74.2       33.3      29.94      40.19       33.3       38.2       29.3      30.05        -22       0.01       0.00       0.17      0.000
6:16am            290          0          0         85       74.2       33.3      29.94      40.19       33.3       38.2       29.3      30.05        -20       0.01       0.00       0.17      0.000
6:17am            290          0          0         85       74.2       33.3      29.94      40.19       33.3       38.2       29.3      30.05        -20       0.01       0.00       0.17      0.000
6:18am            290          0          0         85       74.2       33.4      29.94      40.19       33.4       38.3       29.4      30.05        -19       0.01       0.00       0.17      0.000
6:19am            290          0          0         85       74.2       33.4      29.94      40.19       33.4       38.3       29.4      30.05        -17       0.01       0.00       0.17      0.000
6:20am            290          0          0         85       74.2       33.4      29.94      40.19       33.4       38.3       29.4      30.05        -17       0.01       0.00       0.17      0.000
6:21am            290          0          0         85       74.2       33.4      29.94      40.19       33.4       38.3       29.4      30.05        -17       0.01       0.00       0.17      0.000
6:22am            290          0          0         85       74.2       33.4      29.94      40.19       33.4       38.3       29.4      30.05        -19       0.01       0.00       0.17      0.000
6:23am            290          0          0         85       74.2       33.4      29.94      40.19       33.4       38.3       29.4      30.05        -18       0.01       0.00       0.17      0.000
6:24am            290          0          0         85       74.2       33.5      29.94      40.19       33.5       38.4       29.5      30.05        -18       0.01       0.00       0.17      0.000
6:25am            290          0          0         85       74.2       33.5      29.94      40.19       33.5       38.4       29.5      30.05        -20       0.01       0.00       0.17      0.000
6:26am            290          0          0         85       74.2       33.5      29.94      40.19       33.5       38.4       29.5      30.05        -21       0.01       0.00       0.17      0.000
6:27am            290          0          0         85       74.2       33.5      29.94      40.19       33.5       38.4       29.5      30.05        -21       0.01       0.00       0.17      0.000
6:28am            290          0          0         85       74.2       33.5      29.94      40.19       33.5       38.4       29.5      30.05        -21       0.01       0.00       0.17      0.000
6:29am            290          0          0         85       74.2       33.6      29.94      40.19       33.6       38.5       29.6      30.05        -22       0.01       0.00       0.17      0.000
6:30am            290          0          0         85       74.2       33.6      29.94      40.19       33.6       38.5       29.6      30.05        -22       0.01       0.00       0.17      0.000
6:31am            290          0          0         85       74.2       33.6      29.94      40.19       33.6       38.5       29.6      30.06        -23       0.01       0.00       0.17      0.000
6:32am            290          0          0         85       74.2       33.6      29.95      40.19       33.6       38.5       29.6      30.06        -25       0.01       0.00       0.17      0.000
6:33am            290          0          0         85       74.2       33.6      29.95      40.19       33.6       38.5       29.6      30.06        -26       0.01       0.00       0.17      0.000
6:34am            290          0          0         85       74.2       33.6      29.95      40.19       33.6       38.5       29.6      30.06        -25       0.01       0.00       0.17      0.000
6:35am            290          0          0         85       74.2       33.6      29.95      40.19       33.6       38.5       29.6      30.06        -25       0.01       0.00       0.17      0.000
6:36am            290          0          0         85       74.2       33.7      29.95      40.19       33.7       38.6       29.7      30.06        -26       0.01       0.00       0.17      0.000
6:37am            290          0          0         85       74.2       33.7      29.95      40.19       33.7       38.6       29.7      30.06        -26       0.01       0.00       0.17      0.000
6:38am            290          0          0         85       74.2       33.7      29.95      40.19       33.7       38.6       29.7      30.06        -24       0.01       0.00       0.17      0.000
6:39am            290          0          0         85       74.2       33.7      29.95      40.19       33.7       38.6       29.7      30.06        -24       0.01       0.00       0.17      0.000
6:40am            290          0          0         85       74.2       33.7      29.95      40.19       33.7       38.6       29.7      30.06        -24       0.01       0.00       0.17      0.000
6:41am            290          0          0         85       74.2       33.7      29.94      40.19       33.7       38.6       29.7      30.06        -23       0.01       0.00       0.17      0.000
6:42am            290          0          0         85       74.2       33.7      29.95      40.19       33.7       38.6       29.7      30.06        -26       0.01       0.00       0.17      0.000
6:43am            290          0          0         85       74.2       33.8      29.95      40.19       33.8       38.7       29.8      30.06        -26       0.01       0.00       0.17      0.000
6:44am            290          0          0         85       74.2       33.8      29.95      40.19       33.8       38.7       29.8      30.06        -26       0.01       0.00       0.17      0.000
6:45am            290          0          0         85       74.2       33.8      29.95      40.19       33.8       38.7       29.8      30.06        -27       0.01       0.00       0.17      0.000
6:46am            290          0          0         85       74.2       33.8      29.95      40.19       33.8       38.7       29.8      30.06        -25       0.01       0.00       0.17      0.000
6:47am            290          0          0         85       74.2       33.8      29.95      40.19       33.8       38.7       29.8      30.06        -25       0.01       0.00       0.17      0.000
6:48am            290          0          0         85       74.2       33.8      29.95      40.19       33.8       38.7       29.8      30.06        -25       0.01       0.00       0.17      0.000
6:49am            290          0          0         85       74.2       33.8      29.95      40.19       33.8       38.7       29.8      30.06        -26       0.01       0.00       0.17      0.000
6:50am            290          0          0         85       74.2       33.8      29.95      40.19       33.8       38.7       29.8      30.06        -25       0.01       0.00       0.17      0.000
6:51am            290          0          0         85       74.2       33.8      29.95      40.19       33.8       38.7       29.8      30.06        -25       0.01       0.00       0.17      0.000
6:52am            290          0          0         85       74.2       33.8      29.95      40.19       33.8       38.7       29.8      30.06        -26       0.01       0.00       0.17      0.000
6:53am            290          0          0         85       74.2       33.8      29.95      40.19       33.8       38.7       29.8      30.06        -28       0.01       0.00       0.17      0.000
6:54am            290          0          0         85       74.3       33.8      29.95      40.19       33.8       38.7       29.8      30.06        -27       0.01       0.00       0.17      0.000
6:55am            290          0          0         85       74.3       33.9      29.95      40.19       33.9       38.8       29.9      30.06        -27       0.01       0.00       0.17      0.000
6:56am            290          0          0         85       74.3       33.8      29.95      40.19       33.8       38.7       29.8      30.06        -27       0.01       0.00       0.17      0.000
6:57am            290          0          0         85       74.3       33.8      29.95      40.19       33.8       38.7       29.8      30.06        -27       0.01       0.00       0.17      0.000
6:58am            290          0          0         85       74.3       33.9      29.95      40.19       33.9       38.8       29.9      30.06        -27       0.01       0.00       0.17      0.000
6:59am            290          0          0         85       74.3       33.9      29.95      40.19       33.9       38.8       29.9      30.06        -27       0.01       0.00       0.17      0.000
7:00am            290          0          0         85       74.3       33.9      29.95      40.19       33.9       38.8       29.9      30.06        -27       0.01       0.00       0.17      0.000
7:01am            290          0          0         85       74.3       33.9      29.95      40.19       33.9       38.8       29.9      30.06        -27       0.01       0.00       0.17      0.000
7:02am            290          0          0         85       74.3       33.9      29.95      40.19       33.9       38.8       29.9      30.06        -26       0.01       0.00       0.17      0.000
7:03am            290          0          0         85       74.3       33.9      29.95      40.19       33.9       38.8       29.9      30.06        -27       0.01       0.00       0.17      0.000
7:04am            290          0          0         85       74.3       34.0      29.95      40.19       34.0       38.9       30.0      30.06        -27       0.01       0.00       0.17      0.000
7:05am            290          0          0         85       74.3       33.9      29.95      40.19       33.9       38.8       29.9      30.06        -28       0.01       0.00       0.17      0.000
7:06am            290          0          0         85       74.3       34.0      29.95      40.19       34.0       38.9       30.0      30.06        -27       0.01       0.00       0.17      0.000
7:07am            290          0          0         85       74.3       34.0      29.95      40.19       34.0       38.9       30.0      30.06        -27       0.01       0.00       0.17      0.000
7:08am            290          0          0         85       74.3       34.0      29.95      40.19       34.0       38.9       30.0      30.06        -27       0.01       0.00       0.17      0.000
7:09am            290          0          0         85       74.3       34.1      29.95      40.19       34.1       39.0       30.1      30.06        -29       0.01       0.00       0.17      0.000
7:10am            290          0          0         85       74.3       34.1      29.95      40.19       34.1       39.0       30.1      30.06        -29       0.01       0.00       0.17      0.000
7:11am            290          0          0         85       74.3       34.1      29.95      40.19       34.1       39.0       30.1      30.06        -30       0.01       0.00       0.17      0.000
7:12am            290          0          0         85       74.3       34.1      29.95      40.19       34.1       39.0       30.1      30.06        -30       0.01       0.00       0.17      0.000
7:13am            290          0          0         85       74.3       34.2      29.95      40.19       34.2       39.1       30.2      30.06        -30       0.01       0.00       0.17      0.000
7:14am            290          0          0         85       74.3       34.2      29.95      40.19       34.2       39.1       30.2      30.06        -31       0.01       0.00       0.17      0.000
7:15am            290          0          0         85       74.3       34.2      29.95      40.19       34.2       39.1       30.2      30.06        -31       0.01       0.00       0.17      0.000
7:16am            290          0          0         85       74.3       34.2      29.96      40.19       34.2       39.1       30.2      30.07        -33       0.01       0.00       0.17      0.000
7:17am            290          0          0         85       74.3       34.3      29.95      40.19       34.3       39.2       30.3      30.06        -31       0.01       0.00       0.17      0.000
7:18am            290          0          0         85       74.3       34.3      29.96      40.19       34.3       39.2       30.3      30.07        -33       0.01       0.00       0.17      0.000
7:19am            290          0          0         85       74.4       34.3      29.95      40.19       34.3       39.2       30.3      30.07        -32       0.01       0.00       0.17      0.000
7:20am            290          0          0         85       74.4       34.4      29.96      40.19       34.4       39.3       30.4      30.07        -33       0.01       0.00       0.17      0.000
7:21am            290          0          0         85       74.4       34.4      29.96      40.19       34.4       39.3       30.4      30.07        -35       0.01       0.00       0.17      0.000
7:22am            290          0          0         85       74.3       34.4      29.96      40.19       34.4       39.3       30.4      30.07        -36       0.01       0.00       0.17      0.000
7:23am            290          0          0         85       74.3       34.4      29.96      40.19       34.4       39.3       30.4      30.07        -36       0.01       0.00       0.17      0.000
7:24am            290          0          0         85       74.4       34.4      29.96      40.19       34.4       39.3       30.4      30.07        -35       0.01       0.00       0.17      0.000
7:25am            290          0          0         85       74.4       34.4      29.96      40.19       34.4       39.3       30.4      30.07        -35       0.01       0.00       0.17      0.000
7:26am            290          0          0         85       74.4       34.4      29.96      40.19       34.4       39.3       30.4      30.07        -33       0.01       0.00       0.17      0.000
7:27am            290          0          0         85       74.4       34.4      29.96      40.19       34.4       39.3       30.4      30.07        -33       0.01       0.00       0.17      0.000
7:28am            290          0          0         85       74.4       34.4      29.95      40.19       34.4       39.3       30.4      30.07        -32       0.01       0.00       0.17      0.000
7:29am            290          0          0         85       74.4       34.4      29.96      40.19       34.4       39.3       30.4      30.07        -33       0.01       0.00       0.17      0.000
7:30am            290          0          0         85       74.4       34.5      29.95      40.19       34.5       39.4       30.5      30.07        -32       0.01       0.00       0.17      0.000
7:31am            290          0          0         85       74.4       34.5      29.95      40.19       34.5       39.4       30.5      30.07        -32       0.01       0.00       0.17      0.000
7:32am            290          0          0         85       74.4       34.5      29.96      40.19       34.5       39.4       30.5      30.07        -33       0.01       0.00       0.17      0.000
7:33am            290          0          0         85       74.4       34.5      29.95      40.19       34.5       39.4       30.5      30.07        -32       0.01       0.00       0.17      0.000
7:34am            290          0          0         85       74.4       34.5      29.95      40.19       34.5       39.4       30.5      30.07        -32       0.01       0.00       0.17      0.000
7:35am            290          0          0         85       74.4       34.5      29.96      40.19       34.5       39.4       30.5      30.07        -33       0.01       0.00       0.17      0.000
7:36am            290          0          0         85       74.4       34.5      29.95      40.19       34.5       39.4       30.5      30.07        -32       0.01       0.00       0.17      0.000
7:37am            290          0          0         85       74.4       34.6      29.96      40.19       34.6       39.5       30.6      30.07        -35       0.01       0.00       0.17      0.000
7:38am            290          0          0         84       74.4       34.6      29.96      40.19       34.6       39.4       30.3      30.07        -35       0.01       0.00       0.17      0.000
7:39am            290          0          0         85       74.4       34.6      29.96      40.19       34.6       39.5       30.6      30.07        -36       0.01       0.00       0.17      0.000
7:40am            290          0          0         85       74.4       34.6      29.96      40.19       34.6       39.5       30.6      30.07        -36       0.01       0.00       0.17      0.000
7:41am            290          0          0         85       74.4       34.6      29.96      40.19       34.6       39.5       30.6      30.07        -36       0.01       0.00       0.17      0.000
7:42am            290          0          0         85       74.4       34.6      29.96      40.19       34.6       39.5       30.6      30.07        -37       0.01       0.00       0.17      0.000
7:43am            290          0          0         85       74.4       34.6      29.96      40.19       34.6       39.5       30.6      30.07        -37       0.01       0.00       0.17      0.000
7:44am            290          0          0         85       74.4       34.6      29.96      40.19       34.6       39.5       30.6      30.07        -38       0.01       0.00       0.17      0.000
7:45am            290          0          0         85       74.5       34.6      29.96      40.19       34.6       39.5       30.6      30.07        -38       0.01       0.00       0.17      0.000
7:46am            290          0          0         85       74.5       34.6      29.96      40.19       34.6       39.5       30.6      30.07        -38       0.01       0.00       0.17      0.000
7:47am            290          0          0         85       74.4       34.6      29.96      40.19       34.6       39.5       30.6      30.07        -38       0.01       0.00       0.17      0.000
7:48am            290          0          0         85       74.5       34.7      29.96      40.19       34.7       39.6       30.7      30.07        -38       0.01       0.00       0.17      0.000
7:49am            290          0          0         85       74.5       34.7      29.96      40.19       34.7       39.6       30.7      30.07        -38       0.01       0.00       0.17      0.000
7:50am            290          0          0         85       74.4       34.7      29.96      40.19       34.7       39.6       30.7      30.07        -38       0.01       0.00       0.17      0.000
7:51am            290          0          0         85       74.4       34.7      29.96      40.19       34.7       39.6       30.7      30.07        -38       0.01       0.00       0.17      0.000
7:52am            290          0          0         85       74.4       34.7      29.96      40.19       34.7       39.6       30.7      30.07        -38       0.01       0.00       0.17      0.000
7:53am            290          0          0         85       74.4       34.7      29.96      40.19       34.7       39.6       30.7      30.07        -39       0.01       0.00       0.17      0.000
7:54am            290          0          0         85       74.4       34.7      29.96      40.19       34.7       39.6       30.7      30.07        -39       0.01       0.00       0.17      0.000
7:55am            290          0          0         85       74.4       34.8      29.96      40.19       34.8       39.7       30.8      30.07        -39       0.01       0.00       0.17      0.000
7:56am            290          0          0         85       74.4       34.8      29.96      40.19       34.8       39.7       30.8      30.07        -39       0.01       0.00       0.17      0.000
7:57am            290          0          0         85       74.4       34.8      29.96      40.19       34.8       39.7       30.8      30.07        -40       0.01       0.00       0.17      0.000
7:58am            290          0          0         85       74.4       34.9      29.96      40.19       34.9       39.8       30.9      30.07        -38       0.01       0.00       0.17      0.000
7:59am            290          0          0         85       74.4       34.9      29.96      40.19       34.9       39.8       30.9      30.07        -38       0.01       0.00       0.17      0.000
8:00am            290          0          0         85       74.4       34.9      29.96      40.19       34.9       39.8       30.9      30.07        -37       0.01       0.00       0.17      0.000
8:01am            290          0          0         85       74.4       35.0      29.96      40.19       35.0       39.9       31.0      30.07        -37       0.01       0.00       0.17      0.000
8:02am            290          0          0         84       74.4       35.0      29.96      40.19       35.0       39.8       30.7      30.07        -38       0.01       0.00       0.17      0.000
8:03am            290          0          0         84       74.5       35.0      29.96      40.19       35.0       39.8       30.7      30.07        -38       0.01       0.00       0.17      0.000
8:04am            290          0          0         84       74.5       35.1      29.96      40.19       35.1       39.9       30.8      30.07        -38       0.01       0.00       0.17      0.000
8:05am            290          0          0         84       74.5       35.1      29.96      40.19       35.1       39.9       30.8      30.07        -39       0.01       0.00       0.17      0.000
8:06am            290          0          0         84       74.5       35.1      29.96      40.19       35.1       39.9       30.8      30.07        -39       0.01       0.00       0.17      0.000
8:07am            290          0          0         84       74.5       35.1      29.96      40.19       35.1       39.9       30.8      30.08        -41       0.01       0.00       0.17      0.000
8:08am            290          0          0         84       74.5       35.1      29.97      40.19       35.1       39.9       30.8      30.08        -44       0.01       0.00       0.17      0.000
8:09am            290          0          0         84       74.5       35.2      29.97      40.19       35.2       40.0       30.9      30.08        -43       0.01       0.00       0.17      0.000
8:10am            290          0          0         84       74.5       35.2      29.97      40.19       35.2       40.0       30.9      30.08        -45       0.01       0.00       0.17      0.000
8:11am            290          0          0         84       74.6       35.2      29.97      40.19       35.2       40.0       30.9      30.08        -45       0.01       0.00       0.17      0.000
8:12am            290          0          0         84       74.6       35.2      29.97      40.19       35.2       40.0       30.9      30.08        -45       0.01       0.00       0.17      0.000
8:13am            290          0          0         84       74.5       35.3      29.97      40.19       35.3       40.1       31.0      30.08        -43       0.01       0.00       0.17      0.000
8:14am            290          0          0         84       74.6       35.3      29.97      40.19       35.3       40.1       31.0      30.08        -44       0.01       0.00       0.17      0.000
8:15am            290          0          0         84       74.5       35.3      29.97      40.19       35.3       40.1       31.0      30.08        -42       0.01       0.00       0.17      0.000
8:16am            290          0          0         84       74.5       35.3      29.97      40.19       35.3       40.1       31.0      30.08        -43       0.01       0.00       0.17      0.000
8:17am            290          0          0         84       74.5       35.4      29.97      40.19       35.4       40.2       31.1      30.08        -43       0.01       0.00       0.17      0.000
8:18am            290          0          0         84       74.5       35.4      29.97      40.19       35.4       40.2       31.1      30.08        -43       0.01       0.00       0.17      0.000
8:19am            290          0          0         84       74.6       35.4      29.97      40.19       35.4       40.2       31.1      30.08        -43       0.01       0.00       0.17      0.000
8:20am            290          0          0         84       74.6       35.5      29.97      40.19       35.5       40.3       31.2      30.08        -44       0.01       0.00       0.17      0.000
8:21am            290          0          0         84       74.6       35.5      29.97      40.19       35.5       40.3       31.2      30.08        -42       0.01       0.00       0.17      0.000
8:22am            290          0          0         84       74.6       35.5      29.97      40.19       35.5       40.3       31.2      30.08        -42       0.01       0.00       0.17      0.000
8:23am            290          0          0         84       74.6       35.6      29.97      40.19       35.6       40.4       31.3      30.08        -42       0.01       0.00       0.17      0.000
8:24am            290          0          0         84       74.6       35.6      29.96      40.19       35.6       40.4       31.3      30.07        -40       0.01       0.00       0.17      0.000
8:25am            290          0          0         84       74.6       35.6      29.96      40.19       35.6       40.4       31.3      30.07        -40       0.01       0.00       0.17      0.000
8:26am            290          0          0         84       74.6       35.7      29.96      40.19       35.7       40.5       31.3      30.07        -39       0.01       0.00       0.17      0.000
8:27am            290          0          0         84       74.6       35.7      29.96      40.19       35.7       40.5       31.3      30.07        -40       0.01       0.00       0.17      0.000
8:28am            290          0          0         84       74.6       35.8      29.96      40.19       35.8       40.6       31.4      30.07        -40       0.01       0.00       0.17      0.000
8:29am            290          0          0         83       74.6       35.9      29.96      40.19       35.9       40.5       31.3      30.07        -39       0.01       0.00       0.17      0.000
8:30am            290          0          0         83       74.7       35.9      29.96      40.19       35.9       40.5       31.3      30.08        -41       0.01       0.00       0.17      0.000
8:31am            290          0          0         83       74.6       36.0      29.96      40.19       36.0       40.6       31.3      30.07        -39       0.01       0.00       0.17      0.000
8:32am            290          1          2         83       74.6       36.0      29.96      40.19       36.0       40.6       31.3      30.07        -39       0.01       0.00       0.17      0.000
8:33am            290          0          1         83       74.6       36.1      29.96      40.19       36.1       40.7       31.4      30.07        -39       0.01       0.00       0.17      0.000
8:34am            290          0          1         82       74.7       36.1      29.96      40.19       36.1       40.6       31.1      30.07        -39       0.01       0.00       0.17      0.000
8:35am            290          0          0         82       74.7       36.2      29.96      40.19       36.2       40.7       31.2      30.07        -39       0.01       0.00       0.17      0.000
8:36am            290          0          0         82       74.7       36.2      29.96      40.19       36.2       40.7       31.2      30.07        -39       0.01       0.00       0.17      0.000
8:37am            290          0          0         82       74.7       36.2      29.96      40.19       36.2       40.7       31.2      30.07        -39       0.01       0.00       0.17      0.000
8:38am            290          0          0         81       74.7       36.3      29.96      40.19       36.3       40.7       31.0      30.07        -39       0.01       0.00       0.17      0.000
8:39am            290          0          0         81       74.7       36.4      29.96      40.19       36.4       40.8       31.1      30.07        -40       0.01       0.00       0.17      0.000
8:40am            290          1          2         81       74.7       36.5      29.96      40.19       36.5       40.9       31.2      30.07        -40       0.01       0.00       0.17      0.000
8:41am            290          1          1         81       74.7       36.5      29.96      40.19       36.5       40.9       31.2      30.07        -40       0.01       0.00       0.17      0.000
8:42am            290          2          2         81       74.7       36.6      29.96      40.19       36.0       41.0       31.3      30.07        -38       0.01       0.00       0.17      0.000
8:43am            290          1          2         80       74.7       36.8      29.96      40.19       36.8       41.0       31.2      30.07        -38       0.01       0.00       0.17      0.000
8:43am            290          1          2         80       74.7       36.9      29.96      40.19       36.9       41.1       31.3      30.07        -38       0.01       0.00       0.17      0.000
8:44am            288          1          2         80       74.7       37.0      29.96      40.19       37.0       41.2       31.4      30.07        -39       0.01       0.00       0.17      0.000
8:46am            285          2          2         80       74.7       37.1      29.96      40.19       36.6       41.3       31.5      30.07        -40       0.01       0.00       0.17      0.000
8:47am            285          1          2         80       74.7       37.2      29.96      40.19       37.2       41.4       31.6      30.07        -40       0.01       0.00       0.17      0.000
8:48am            285          0          2         80       74.7       37.3      29.96      40.19       37.3       41.5       31.7      30.07        -40       0.01       0.00       0.17      0.000
8:49am            285          1          1         79       74.8       37.4      29.96      40.19       37.4       41.5       31.5      30.07        -40       0.01       0.00       0.17      0.000
8:50am            248          0          2         79       74.8       37.6      29.96      40.19       37.6       41.7       31.7      30.07        -40       0.01       0.00       0.17      0.000
8:51am            248          1          1         79       74.8       37.7      29.96      40.19       37.7       41.8       31.8      30.07        -40       0.01       0.00       0.17      0.000
8:52am            248          1          2         78       74.8       37.9      29.96      40.19       37.9       41.9       31.7      30.07        -40       0.01       0.00       0.17      0.000
8:53am            248          2          2         78       74.8       37.9      29.96      40.19       37.5       41.9       31.7      30.07        -40       0.01       0.00       0.17      0.000
8:54am            231          1          3         78       74.8       38.1      29.96      40.19       38.1       42.1       31.9      30.07        -39       0.01       0.00       0.17      0.000
8:55am            231          1          2         77       74.8       38.2      29.96      40.19       38.2       42.0       31.6      30.07        -39       0.01       0.00       0.17      0.000
8:56am            178          0          3         77       74.8       38.3      29.96      40.19       38.3       42.1       31.7      30.07        -40       0.01       0.00       0.17      0.000
8:57am            178          1          1         77       74.8       38.4      29.96      40.19       38.4       42.2       31.8      30.07        -40       0.01       0.00       0.17      0.000
8:58am            178          1          2         76       74.8       38.6      29.96      40.19       38.6       42.3       31.7      30.07        -40       0.01       0.00       0.17      0.000
8:59am            178          1          2         76       74.8       38.7      29.96      40.19       38.7       42.4       31.8      30.07        -40       0.01       0.00       0.17      0.000
9:00am            171          2          2         76       74.8       38.8      29.96      40.19       38.4       42.5       31.9      30.07        -40       0.01       0.00       0.17      0.000
9:01am            171          2          2         75       74.8       38.9      29.96      40.19       38.6       42.5       31.7      30.07        -40       0.01       0.00       0.17      0.000
9:02am            171          0          2         75       74.8       39.0      29.97      40.19       39.0       42.6       31.8      30.08        -42       0.01       0.00       0.17      0.000
9:03am            171          1          1         75       74.8       39.2      29.97      40.19       39.2       42.8       32.0      30.08        -42       0.01       0.00       0.17      0.000
9:04am            172          2          2         75       74.8       39.3      29.97      40.19       39.0       42.9       32.1      30.08        -43       0.01       0.00       0.17      0.000
9:05am            172          2          2         74       74.8       39.4      29.97      40.19       39.1       42.8       31.8      30.08        -44       0.01       0.00       0.17      0.000
9:06am            187          3          3         74       74.8       39.5      29.97      40.19       37.8       42.9       31.9      30.08        -46       0.01       0.00       0.17      0.000
9:07am            217          4          4         74       74.8       39.6      29.97      40.19       36.9       43.0       32.0      30.08        -45       0.01       0.00       0.17      0.000
9:08am            183          1          4         74       74.8       39.6      29.97      40.19       39.6       43.0       32.0      30.08        -45       0.01       0.00       0.17      0.000
9:09am            183          0          2         73       74.8       39.7      29.97      40.19       39.7       43.0       31.8      30.08        -45       0.01       0.00       0.17      0.000
9:10am            183          1          2         73       74.8       39.7      29.97      40.19       39.7       43.0       31.8      30.08        -44       0.01       0.00       0.17      0.000
9:11am            183          0          1         73       74.8       39.8      29.97      40.19       39.8       43.1       31.9      30.08        -45       0.01       0.00       0.17      0.000
9:12am            183          0          1         73       74.8       39.8      29.97      40.19       39.8       43.1       31.9      30.08        -45       0.01       0.00       0.17      0.000
9:13am            183          0          0         72       74.9       39.9      29.97      40.19       39.9       43.1       31.6      30.08        -46       0.01       0.00       0.17      0.000
9:14am            183          0          0         72       74.9       40.0      29.97      40.19       40.0       43.2       31.7      30.08        -45       0.01       0.00       0.17      0.000
9:15am            183          0          0         72       74.9       40.0      29.97      40.19       40.0       43.2       31.7      30.08        -45       0.01       0.00       0.17      0.000
9:16am            183          0          0         72       74.9       40.1      29.97      40.19       40.1       43.3       31.8      30.08        -45       0.01       0.00       0.17      0.000
9:17am            183          0          0         71       74.9       40.1      29.97      40.19       40.1       43.2       31.5      30.08        -44       0.01       0.00       0.17      0.000
9:18am            183          0          0         71       74.9       40.2      29.97      40.19       40.2       43.3       31.6      30.08        -44       0.01       0.00       0.17      0.000
9:19am            183          2          2         71       74.9       40.2      29.97      40.19       40.0       43.3       31.6      30.08        -44       0.01       0.00       0.17      0.000
9:20am            183          1          2         71       74.9       40.3      29.97      40.19       40.3       43.4       31.7      30.08        -44       0.01       0.00       0.17      0.000
9:21am            183          1          2         71       74.9       40.4      29.97      40.19       40.4       43.5       31.8      30.08        -44       0.01       0.00       0.17      0.000
9:22am            183          1          1         71       74.9       40.5      29.97      40.19       40.5       43.6       31.9      30.08        -44       0.01       0.00       0.17      0.000
9:23am            183          1          2         71       74.9       40.7      29.97      40.19       40.7       43.8       32.0      30.08        -44       0.01       0.00       0.17      0.000
9:24am            183          0          2         71       74.9       40.8      29.97      40.19       40.8       43.9       32.1      30.08        -44       0.01       0.00       0.17      0.000
9:25am            183          2          2         71       74.9       40.9      29.97      40.19       40.8       44.0       32.2      30.08        -44       0.01       0.00       0.17      0.000
9:26am            183          2          2         71       74.9       41.0      29.97      40.19       40.9       44.1       32.3      30.08        -44       0.01       0.00       0.17      0.000
9:27am            183          0          2         70       74.9       41.1      29.97      40.19       41.1       44.1       32.1      30.08        -44       0.01       0.00       0.17      0.000
9:28am            183          1          1         70       75.0       41.2      29.97      40.20       41.2       44.2       32.2      30.08        -45       0.02       0.01       0.18      0.000
9:29am            163          1          3         69       75.0       41.3      29.97      40.20       41.3       44.1       31.9      30.08        -45       0.02       0.01       0.18      0.000
9:30am            163          2          3         70       75.0       41.4      29.97      40.20       41.3       44.4       32.4      30.08        -44       0.02       0.01       0.18      0.000
9:31am            163          1          2         70       75.0       41.5      29.97      40.20       41.5       44.5       32.5      30.08        -45       0.02       0.01       0.18      0.000
9:32am            151          1          3         70       75.0       41.6      29.97      40.20       41.6       44.6       32.6      30.08        -45       0.02       0.01       0.18      0.000
9:33am            151          0          3         69       75.0       41.6      29.97      40.20       41.6       44.4       32.2      30.08        -45       0.02       0.01       0.18      0.000
9:34am            151          0          2         69       75.0       41.8      29.97      40.20       41.8       44.6       32.4      30.08        -46       0.02       0.01       0.18      0.000
9:35am            151          1          3         69       75.0       41.8      29.97      40.20       41.8       44.6       32.4      30.08        -46       0.02       0.01       0.18      0.000
9:36am            151          1          2         68       75.0       41.9      29.97      40.20       41.9       44.6       32.1      30.08        -47       0.02       0.01       0.18      0.000
9:37am            151          1          2         67       75.0       41.9      29.97      40.20       41.9       44.5       31.8      30.08        -47       0.02       0.01       0.18      0.000
9:38am            151          2          2         67       75.0       42.0      29.97      40.20       42.0       44.6       31.9      30.08        -47       0.02       0.01       0.18      0.000
9:39am            151          2          2         66       75.1       42.0      29.97      40.20       42.0       44.5       31.5      30.08        -46       0.02       0.01       0.18      0.000
9:40am            151          1          2         66       75.1       42.1      29.97      40.20       42.1       44.6       31.6      30.08        -47       0.02       0.01       0.18      0.000
9:40am            151          0          1         65       75.1       42.1      29.97      40.20       42.1       44.5       31.2      30.08        -48       0.02       0.01       0.18      0.000
9:42am            151          0          0         65       75.1       42.1      29.97      40.20       42.1       44.5       31.2      30.08        -50       0.02       0.01       0.18      0.000
9:43am            151          0          1         66       75.1       42.2      29.97      40.20       42.2       44.7       31.7      30.08        -50       0.02       0.01       0.18      0.000
9:44am            151          0          0         66       75.1       42.3      29.97      40.20       42.3       44.8       31.8      30.08        -50       0.02       0.01       0.18      0.000
9:45am            151          0          0         66       75.1       42.4      29.97      40.20       42.4       44.9       31.9      30.08        -49       0.02       0.01       0.18      0.000
9:46am            151          0          0         66       75.1       42.4      29.97      40.20       42.4       44.9       31.9      30.08        -50       0.02       0.01       0.18      0.000
9:47am            151          0          0         65       75.1       42.5      29.97      40.20       42.5       44.9       31.6      30.08        -50       0.02       0.01       0.18      0.000
9:48am            151          0          0         65       75.1       42.5      29.97      40.20       42.5       44.9       31.6      30.08        -50       0.02       0.01       0.18      0.000
9:49am            206          1          2         65       75.1       42.6      29.97      40.20       42.6       45.0       31.7      30.08        -50       0.02       0.01       0.18      0.000
9:50am            206          0          2         65       75.1       42.6      29.97      40.20       42.6       45.0       31.7      30.08        -50       0.02       0.01       0.18      0.000
9:51am            207          2          3         65       75.2       42.7      29.98      40.20       42.7       45.1       31.8      30.09        -52       0.02       0.01       0.18      0.000
9:52am            207          1          3         65       75.2       42.7      29.98      40.20       42.7       45.1       31.8      30.09        -54       0.02       0.01       0.18      0.000
9:53am            201          1          2         65       75.2       42.8      29.98      40.20       42.8       45.2       31.9      30.09        -54       0.02       0.01       0.18      0.000
9:54am            205          3          4         65       75.2       42.8      29.98      40.20       41.5       45.2       31.9      30.09        -55       0.02       0.01       0.18      0.000
9:55am            205          1          3         64       75.2       42.9      29.98      40.20       42.9       45.2       31.6      30.09        -54       0.02       0.01       0.18      0.000
9:56am            205          1          1         64       75.2       42.9      29.98      40.20       42.9       45.2       31.6      30.09        -54       0.02       0.01       0.18      0.000
9:57am            205          1          2         64       75.2       43.0      29.98      40.20       43.0       45.3       31.7      30.09        -55       0.02       0.01       0.18      0.000
9:58am            176          2          3         64       75.3       43.1      29.98      40.20       43.1       45.4       31.8      30.09        -57       0.02       0.01       0.18      0.000
9:59am            176          2          2         63       75.3       43.1      29.98      40.20       43.1       45.2       31.4      30.09        -57       0.02       0.01       0.18      0.000
10:00am           176          2          2         64       75.3       43.2      29.98      40.20       43.2       45.5       31.9      30.09        -56       0.02       0.01       0.18      0.000
10:01am           176          1          2         64       75.3       43.3      29.98      40.20       43.3       45.6       32.0      30.09        -56       0.02       0.01       0.18      0.000
10:02am           197          3          4         63       75.3       43.2      29.98      40.20       42.0       45.3       31.5      30.09        -56       0.02       0.01       0.18      0.000
10:03am           197          2          3         62       75.3       43.2      29.98      40.20       43.2       45.2       31.1      30.09        -56       0.02       0.01       0.18      0.000
10:04am           197          0          2         63       75.3       43.2      29.98      40.20       43.2       45.3       31.5      30.09        -55       0.02       0.01       0.18      0.000
10:05am           197          1          1         65       75.3       43.3      29.98      40.20       43.3       45.7       32.3      30.09        -56       0.02       0.01       0.18      0.000
10:06am           197          1          2         65       75.3       43.4      29.98      40.20       43.4       45.8       32.4      30.09        -56       0.02       0.01       0.18      0.000
10:07am           197          2          2         64       75.3       43.5      29.98      40.20       43.5       45.8       32.1      30.09        -56       0.02       0.01       0.18      0.000
10:08am           197          1          2         64       75.3       43.6      29.98      40.20       43.6       45.9       32.2      30.09        -58       0.02       0.01       0.18      0.000
10:09am           208          2          4         64       75.3       43.8      29.98      40.20       43.8       46.1       32.4      30.09        -57       0.02       0.01       0.18      0.000
10:10am           208          1          2         63       75.3       43.9      29.98      40.20       43.9       46.0       32.1      30.09        -57       0.02       0.01       0.18      0.000
10:11am           251          3          5         61       75.3       43.9      29.98      40.20       42.8       45.8       31.3      30.09        -58       0.02       0.01       0.18      0.000
10:12am           201          6          6         61       75.3       44.0      29.98      40.20       40.5       45.9       31.4      30.09        -57       0.02       0.01       0.18      0.000
10:13am           183          5          6         60       75.3       44.0      29.98      40.20       41.2       45.8       31.0      30.09        -57       0.02       0.01       0.18      0.000
10:14am           241          2          5         58       75.4       44.0      29.98      40.20       44.0       45.6       30.2      30.09        -58       0.02       0.01       0.18      0.000
10:15am           262          2          5         58       75.4       44.1      29.98      40.20       44.1       45.7       30.3      30.09        -58       0.02       0.01       0.18      0.000
10:16am           252          3          5         58       75.3       44.2      29.99      40.20       43.1       45.8       30.4      30.10        -61       0.02       0.01       0.18      0.000
10:17am           237          6          7         57       75.4       44.3      29.99      40.20       40.9       45.8       30.0      30.10        -62       0.02       0.01       0.18      0.000
10:18am           252          3          7         58       75.4       44.4      29.99      40.20       43.3       46.0       30.6      30.10        -62       0.02       0.01       0.18      0.000
10:19am           334          2          3         58       75.4       44.6      29.99      40.20       44.6       46.2       30.8      30.10        -62       0.02       0.01       0.18      0.000
10:20am           271          2          4         58       75.4       44.7      29.99      40.20       44.7       46.3       30.8      30.10        -61       0.02       0.01       0.18      0.000
10:21am           332          3          5         56       75.4       44.8      29.99      40.20       43.8       46.2       30.1      30.10        -61       0.02       0.01       0.18      0.000
10:22am           302          2          4         54       75.4       44.9      29.99      40.20       44.9       46.1       29.3      30.10        -61       0.02       0.01       0.18      0.000
10:23am           307          3          5         53       75.4       44.9      29.99      40.20       43.9       46.0       28.8      30.10        -61       0.02       0.01       0.18      0.000
10:24am           319          2          4         53       75.4       45.0      29.99      40.20       45.0       46.1       28.9      30.10        -61       0.02       0.01       0.18      0.000
10:25am           261          4          4         54       75.4       45.1      29.99      40.20       43.2       46.3       29.5      30.10        -61       0.02       0.01       0.18      0.000
10:26am           314          3          4         53       75.4       45.2      29.99      40.20       44.2       46.3       29.1      30.10        -61       0.02       0.01       0.18      0.000
10:27am           316          3          4         54       75.4       45.2      29.99      40.21       44.2       46.4       29.6      30.10        -61       0.03       0.02       0.19      0.000
10:27am           328          3          5         51       75.4       45.3      29.99      40.21       44.4       46.2       28.3      30.10        -61       0.03       0.02       0.19      0.000
10:29am           335          5          6         51       75.4       45.4      29.98      40.21       42.8       46.3       28.3      30.09        -58       0.03       0.01       0.19      0.000
10:30am           278          4          6         51       75.4       45.4      29.98      40.21       43.6       46.3       28.3      30.09        -58       0.03       0.01       0.19      0.000
10:31am           231          5          8         51       75.4       45.4      29.98      40.21       42.8       46.3       28.3      30.09        -58       0.03       0.01       0.19      0.000
10:32am           285          4          6         51       75.4       45.4      29.98      40.21       43.6       46.3       28.3      30.09        -58       0.03       0.01       0.19      0.000
10:33am           263          3          4         51       75.4       45.4      29.98      40.21       44.5       46.3       28.3      30.09        -57       0.03       0.01       0.19      0.000
10:34am           304          3          5         51       75.4       45.4      29.98      40.21       44.5       46.3       28.3      30.09        -57       0.03       0.01       0.19      0.000
10:35am           324          2          7         51       75.4       45.4      29.98      40.21       45.4       46.3       28.3      30.09        -55       0.03       0.01       0.19      0.000
10:36am           347          3          5         51       75.4       45.4      29.98      40.21       44.5       46.3       28.3      30.09        -55       0.03       0.01       0.19      0.000
10:37am           354          5          6         50       75.5       45.3      29.98      40.21       42.7       46.1       27.8      30.09        -53       0.03       0.01       0.19      0.000
10:38am           304          2          5         50       75.5       45.3      29.98      40.21       45.3       46.1       27.8      30.09        -53       0.03       0.01       0.19      0.000
10:39am           338          5          6         50       75.5       45.3      29.97      40.21       42.7       46.1       27.8      30.08        -50       0.03       0.01       0.19      0.000
10:40am           345          3          8         50       75.5       45.2      29.97      40.21       44.2       46.0       27.7      30.08        -50       0.03       0.01       0.19      0.000
10:41am           333          2          6         50       75.5       45.2      29.97      40.21       45.2       46.0       27.7      30.08        -50       0.03       0.01       0.19      0.000
10:42am           277          1          3         51       75.5       45.2      29.97      40.21       45.2       46.1       28.2      30.08        -50       0.03       0.01       0.19      0.000
10:43am           233          4          6         52       75.5       45.4      29.97      40.21       43.6       46.4       28.8      30.08        -50       0.03       0.01       0.19      0.000
10:44am           309          3          5         52       75.5       45.5      29.97      40.21       44.6       46.5       28.9      30.08        -50       0.03       0.01       0.19      0.000
10:45am           253          6          6         49       75.5       45.6      29.97      40.21       42.4       46.3       27.6      30.08        -50       0.03       0.01       0.19      0.000
10:46am           284          3          6         48       75.5       45.6      29.97      40.21       44.7       46.2       27.1      30.08        -50       0.03       0.01       0.19      0.000
10:47am           280          5          7         48       75.5       45.6      29.97      40.21       43.0       46.2       27.1      30.08        -50       0.03       0.01       0.19      0.000
10:48am           311          2          5         49       75.5       45.6      29.97      40.21       45.6       46.3       27.6      30.08        -50       0.03       0.01       0.19      0.000
10:49am           317          3          4         49       75.5       45.6      29.97      40.21       44.7       46.3       27.6      30.08        -50       0.03       0.01       0.19      0.000
10:50am           322          3          4         48       75.5       45.7      29.97      40.21       44.8       46.3       27.2      30.08        -50       0.03       0.01       0.19      0.000
10:51am           334          3          6         48       75.5       45.7      29.97      40.21       44.8       46.3       27.2      30.08        -50       0.03       0.01       0.19      0.000
10:52am           241          8          8         48       75.5       45.7      29.97      40.21       41.5       46.3       27.2      30.08        -50       0.03       0.01       0.19      0.000
10:52am           336          2         10         49       75.5       45.8      29.97      40.21       45.8       46.5       27.7      30.08        -50       0.03       0.01       0.19      0.000
10:54am           237          3          6         50       75.5       45.8      29.97      40.21       44.9       46.6       28.2      30.08        -50       0.03       0.01       0.19      0.000
10:55am           232          2          5         50       75.5       45.9      29.97      40.21       45.9       46.7       28.3      30.08        -49       0.03       0.01       0.19      0.000
10:56am           227          4          4         50       75.5       45.9      29.97      40.21       44.1       46.7       28.3      30.08        -49       0.03       0.01       0.18      0.000
10:57am           241          3          5         49       75.5       45.9      29.97      40.21       45.0       46.6       27.8      30.08        -49       0.03       0.01       0.18      0.000
10:58am           287          6         12         49       75.5       45.9      29.97      40.21       42.8       46.6       27.8      30.08        -50       0.03       0.01       0.18      0.000
10:59am           279          3          7         49       75.5       46.0      29.97      40.21       45.2       46.7       27.9      30.08        -50       0.03       0.01       0.18      0.000
11:00am           288          3          8         48       75.5       45.9      29.97      40.21       45.0       46.5       27.3      30.08        -50       0.03       0.01       0.18      0.000
11:01am           316          3          6         49       75.5       45.9      29.97      40.21       45.0       46.6       27.8      30.08        -50       0.03       0.01       0.18      0.000
11:02am           303          2          6         49       75.5       45.9      29.97      40.21       45.9       46.6       27.8      30.08        -49       0.03       0.01       0.18      0.000
11:03am           290          2          4         49       75.5       45.8      29.97      40.21       45.8       46.5       27.7      30.08        -49       0.03       0.01       0.18      0.000
11:04am           256          6          6         49       75.5       45.9      29.97      40.21       42.8       46.6       27.8      30.08        -49       0.03       0.01       0.18      0.000
11:05am           285          3          7         48       75.5       45.9      29.97      40.21       45.0       46.5       27.3      30.08        -48       0.03       0.01       0.18      0.000
11:06am           340          3          6         48       75.5       45.9      29.97      40.21       45.0       46.5       27.3      30.08        -47       0.03       0.01       0.18      0.000
11:07am           323          5          5         48       75.5       45.9      29.97      40.21       43.4       46.5       27.3      30.08        -48       0.03       0.01       0.18      0.000
11:08am           319          1          5         48       75.5       45.9      29.97      40.21       45.9       46.5       27.3      30.08        -48       0.03       0.01       0.18      0.000
11:09am           295          3          3         48       75.5       46.0      29.97      40.21       45.2       46.6       27.4      30.08        -49       0.03       0.01       0.18      0.000
11:10am           295          4          6         48       75.5       46.0      29.97      40.21       44.2       46.6       27.4      30.08        -48       0.03       0.01       0.18      0.000
11:11am           250          6          6         48       75.5       46.0      29.97      40.21       42.9       46.6       27.4      30.08        -48       0.03       0.01       0.18      0.000
11:12am           233          4          7         48       75.5       46.0      29.97      40.21       44.2       46.6       27.4      30.08        -49       0.03       0.01       0.18      0.000
11:13am           223          8          8         49       75.5       46.1      29.97      40.21       42.0       46.8       28.0      30.08        -49       0.03       0.01       0.18      0.000
11:14am           229          4         10         49       75.5       46.1      29.97      40.21       44.4       46.8       28.0      30.08        -50       0.03       0.01       0.18      0.000
11:15am           266          3          4         51       75.5       46.2      29.97      40.21       45.4       47.1       29.1      30.08        -50       0.03       0.01       0.18      0.000
11:16am           348          3          5         51       75.5       46.2      29.97      40.21       45.4       47.1       29.1      30.08        -49       0.03       0.01       0.18      0.000
11:16am           355          2          4         47       75.5       46.1      29.97      40.21       46.1       46.6       27.0      30.08        -49       0.03       0.01       0.18      0.000
11:18am           333          2          3         47       75.5       46.1      29.97      40.21       46.1       46.6       27.0      30.08        -48       0.03       0.01       0.18      0.000
11:19am           327          2          5         47       75.5       46.0      29.97      40.21       46.0       46.5       26.9      30.08        -46       0.03       0.01       0.17      0.000
11:20am           354          1          5         47       75.5       46.0      29.97      40.21       46.0       46.5       26.9      30.08        -44       0.03       0.01       0.17      0.000
11:21am           359          1          5         47       75.5       45.9      29.97      40.21       45.9       46.4       26.8      30.08        -44       0.03       0.01       0.17      0.000
11:22am           293          3          6         47       75.5       45.9      29.97      40.21       45.0       46.4       26.8      30.08        -42       0.03       0.01       0.17      0.000
11:23am           259          3          5         47       75.5       45.9      29.97      40.21       45.0       46.4       26.8      30.08        -43       0.03       0.01       0.17      0.000
11:24am           220          4          6         47       75.5       45.9      29.97      40.21       44.1       46.4       26.8      30.08        -42       0.03       0.01       0.17      0.000
11:25am           304          1          7         49       75.5       46.0      29.97      40.21       46.0       46.7       27.9      30.08        -42       0.03       0.01       0.17      0.000
11:26am           214          2          4         50       75.5       46.1      29.97      40.21       46.1       46.9       28.5      30.08        -45       0.03       0.01       0.17      0.000
11:27am           285          2          7         50       75.5       46.4      29.97      40.21       46.4       47.2       28.8      30.08        -45       0.03       0.01       0.17      0.000
11:28am           357          3          4         50       75.5       46.7      29.97      40.21       45.9       47.5       29.1      30.08        -44       0.03       0.00       0.17      0.000
11:29am           304          2          5         47       75.5       46.6      29.97      40.21       46.6       47.1       27.5      30.08        -42       0.03       0.00       0.17      0.000
11:30am           303          1          3         46       75.6       46.6      29.96      40.21       46.6       47.0       26.9      30.07        -40       0.03       0.00       0.17      0.000
11:31am           311          2          4         47       75.6       46.5      29.96      40.21       46.5       47.0       27.4      30.07        -40       0.03       0.00       0.17      0.000
11:32am           336          2          5         46       75.6       46.5      29.96      40.21       46.5       46.9       26.9      30.07        -40       0.03       0.00       0.17      0.000
11:33am           234          0          3         46       75.6       46.5      29.96      40.21       46.5       46.9       26.9      30.07        -40       0.03       0.00       0.17      0.000
11:34am           316          2          3         49       75.6       46.5      29.96      40.21       46.5       47.2       28.4      30.07        -39       0.03       0.00       0.17      0.000
11:35am           276          1          3         48       75.6       46.7      29.96      40.21       46.7       47.3       28.1      30.07        -39       0.03       0.00       0.16      0.000
11:36am           314          2          5         49       75.5       46.9      29.96      40.21       46.9       47.6       28.8      30.07        -40       0.03       0.00       0.16      0.000
11:37am           187          4          7         48       75.6       46.9      29.96      40.21       45.3       47.5       28.3      30.07        -37       0.03       0.00       0.16      0.000
11:38am           172          1          4         46       75.6       46.9      29.96      40.21       46.9       47.3       27.2      30.07        -34       0.03       0.00       0.16      0.000
11:39am           145          4          4         46       75.6       46.8      29.96      40.21       45.2       47.2       27.1      30.07        -34       0.03       0.00       0.16      0.000
11:40am           286          4          4         47       75.6       46.7      29.95      40.21       45.1       47.2       27.6      30.07        -32       0.03       0.00       0.16      0.000
11:41am           262          4          5         47       75.6       46.8      29.95      40.21       45.2       47.3       27.6      30.06        -31       0.03       0.00       0.16      0.000
11:42am           293          3          4         48       75.6       46.9      29.95      40.21       46.2       47.5       28.3      30.06        -29       0.03       0.00       0.16      0.000
11:43am           328          4          6         47       75.6       47.0      29.95      40.21       45.4       47.5       27.8      30.06        -29       0.03       0.00       0.16      0.000
11:44am           332          4          7         47       75.6       47.0      29.95      40.21       45.4       47.5       27.8      30.06        -29       0.03       0.00       0.16      0.000
11:45am           274          4          5         47       75.6       47.0      29.95      40.21       45.4       47.5       27.8      30.06        -27       0.03       0.00       0.16      0.000
11:46am           221          4          5         47       75.6       47.0      29.95      40.21       45.4       47.5       27.8      30.06        -27       0.03       0.00       0.16      0.000
11:47am           246          5          7         47       75.6       47.0      29.95      40.21       44.7       47.5       27.8      30.06        -26       0.03       0.00       0.16      0.000
11:48am           288          1          5         46       75.6       47.0      29.95      40.21       47.0       47.4       27.3      30.06        -26       0.03       0.00       0.16      0.000
11:49am           254          4          7         47       75.6       46.9      29.95      40.21       45.3       47.4       27.7      30.06        -24       0.03       0.00       0.16      0.000
11:50am           250          4          5         47       75.6       46.9      29.95      40.21       45.3       47.4       27.7      30.06        -24       0.03       0.00       0.16      0.000
11:51am           224          3          6         48       75.6       46.9      29.95      40.21       46.2       47.5       28.3      30.06        -24       0.03       0.00       0.16      0.000
11:52am           268          3          8         48       75.6       46.9      29.94      40.21       46.2       47.5       28.3      30.06        -23       0.03       0.00       0.15      0.000
11:53am           227          5          5         47       75.6       46.9      29.94      40.21       44.6       47.4       27.7      30.05        -20       0.03       0.00       0.15      0.000
11:54am           230          5          7         46       75.6       46.8      29.94      40.21       44.5       47.2       27.1      30.05        -21       0.03       0.00       0.15      0.000
11:55am           226          7          9         47       75.6       46.8      29.94      40.21       43.3       47.3       27.6      30.05        -21       0.03       0.00       0.15      0.000
11:56am           256          4          8         47       75.6       46.8      29.94      40.21       45.2       47.3       27.6      30.06        -23       0.03       0.00       0.15      0.000
11:57am           319          2          5         47       75.6       46.8      29.94      40.21       46.8       47.3       27.6      30.05        -22       0.03       0.00       0.15      0.000
11:58am           338          4          5         47       75.6       46.8      29.94      40.21       45.2       47.3       27.6      30.05        -22       0.03       0.00       0.15      0.000
11:59am           219          3          4         46       75.7       46.7      29.94      40.21       45.9       47.1       27.0      30.05        -20       0.03       0.00       0.15      0.000
12:00pm           180          4          4         46       75.7       46.8      29.94      40.21       45.2       47.2       27.1      30.05        -19       0.03       0.00       0.15      0.000
12:01pm           192          3          4         48       75.7       46.9      29.94      40.21       46.2       47.5       28.3      30.05        -19       0.03       0.00       0.15      0.000
12:02pm           288          3          5         48       75.7       47.0      29.94      40.21       46.3       47.6       28.3      30.05        -18       0.03       0.00       0.15      0.000
12:03pm           324          2          4         47       75.7       47.0      29.94      40.21       47.0       47.5       27.8      30.05        -18       0.03       0.00       0.15      0.000
12:04pm           262          1          3         47       75.7       47.1      29.94      40.21       47.1       47.6       27.9      30.05        -16       0.03       0.00       0.15      0.000
12:05pm           236          3          3         49       75.7       47.2      29.94      40.21       46.5       47.9       29.0      30.05        -16       0.03       0.00       0.15      0.000
12:06pm           200          5          5         47       75.7       47.2      29.94      40.21       44.9       47.7       28.0      30.05        -16       0.03       0.00       0.15      0.000
12:07pm           169          3          5         47       75.7       47.2      29.94      40.21       46.5       47.7       28.0      30.05        -16       0.03       0.00       0.15      0.000
12:08pm           169          2          3         46       75.7       47.2      29.93      40.21       47.2       47.6       27.5      30.05        -14       0.03       0.00       0.15      0.000
12:09pm           130          1          3         47       75.7       47.2      29.93      40.21       47.2       47.7       28.0      30.04        -13       0.03       0.00       0.15      0.000
12:10pm           100          1          4         45       75.7       47.2      29.93      40.21       47.2       47.5       27.0      30.04        -13       0.03       0.00       0.14      0.000
12:11pm           205          2          6         45       75.7       47.1      29.93      40.21       47.1       47.4       26.9      30.04        -12       0.03       0.00       0.14      0.000
12:12pm           205          3          3         46       75.7       47.1      29.93      40.21       46.4       47.5       27.4      30.04        -11       0.03       0.00       0.14      0.000
12:13pm           201          4          5         46       75.7       47.2      29.93      40.21       45.6       47.6       27.5      30.04        -10       0.03       0.00       0.14      0.000
12:14pm           198          2          4         45       75.7       47.2      29.93      40.21       47.2       47.5       27.0      30.04         -9       0.03       0.00       0.14      0.000
12:15pm           187          0          3         45       75.7       47.1      29.93      40.21       47.1       47.4       26.9      30.04         -9       0.03       0.00       0.14      0.000
12:16pm           198          3          6         47       75.7       47.2      29.93      40.21       46.5       47.7       28.0      30.04         -7       0.03       0.00       0.14      0.000
12:17pm           195          2          4         47       75.7       47.2      29.93      40.21       47.2       47.7       28.0      30.04         -8       0.03       0.00       0.14      0.000
12:18pm           221          3          4         46       75.8       47.3      29.93      40.21       46.6       47.7       27.6      30.04         -9       0.03       0.00       0.14      0.000
12:19pm           228          6          6         48       75.8       47.4      29.93      40.21       44.6       48.0       28.7      30.04         -9       0.03       0.00       0.14      0.000
12:20pm           234          4          6         48       75.7       47.6      29.93      40.21       46.1       48.2       28.9      30.04         -9       0.03       0.00       0.14      0.000
12:21pm           193          4          5         47       75.8       47.7      29.93      40.21       46.2       48.2       28.5      30.04        -10       0.03       0.00       0.14      0.000
12:22pm           182          2          4         47       75.8       47.8      29.93      40.21       47.8       48.3       28.6      30.04         -8       0.03       0.00       0.14      0.000
12:23pm           264          2          6         46       75.8       47.8      29.93      40.21       47.8       48.2       28.0      30.04         -8       0.03       0.00       0.14      0.000
12:24pm           253          3          5         47       75.8       47.9      29.93      40.21       47.3       48.4       28.7      30.04         -8       0.03       0.00       0.13      0.000
12:25pm           344          2          5         47       75.8       48.0      29.93      40.21       48.0       48.5       28.7      30.04         -8       0.03       0.00       0.13      0.000
12:26pm           278          1          5         47       75.8       48.1      29.93      40.21       48.1       48.6       28.8      30.04         -6       0.03       0.00       0.13      0.000
12:27pm           261          3          6         48       75.8       48.2      29.93      40.21       47.6       48.8       29.4      30.04         -6       0.03       0.00       0.13      0.000
12:28pm           254          1          4         46       75.8       48.2      29.93      40.21       48.2       48.6       28.4      30.04         -6       0.03       0.00       0.13      0.000
12:29pm           340          1          3         46       75.8       48.3      29.93      40.21       48.3       48.7       28.5      30.04         -7       0.03       0.00       0.13      0.000
12:30pm           340          2          3         45       75.8       48.3      29.93      40.21       48.3       48.6       28.0      30.04         -7       0.03       0.00       0.13      0.000
12:31pm            84          3          3         46       75.8       48.3      29.93      40.21       47.8       48.7       28.5      30.04         -7       0.03       0.00       0.13      0.000
12:32pm           101          4          4         46       75.8       48.4      29.93      40.21       47.0       48.8       28.6      30.04         -8       0.03       0.00       0.13      0.000
12:33pm           146          1          4         45       75.8       48.4      29.93      40.21       48.4       48.7       28.1      30.04         -6       0.03       0.00       0.13      0.000
12:34pm           146          1          2         46       75.8       48.5      29.92      40.21       48.5       48.9       28.7      30.03         -3       0.03       0.00       0.13      0.000
12:35pm           146          1          2         46       75.8       48.5      29.92      40.21       48.5       48.9       28.7      30.03         -3       0.03       0.00       0.13      0.000
12:36pm           221          4          4         46       75.8       48.6      29.92      40.21       47.3       49.0       28.8      30.03         -2       0.03       0.00       0.13      0.000
12:37pm           221          3          5         45       75.8       48.6      29.92      40.21       48.1       48.9       28.2      30.03         -2       0.03       0.00       0.13      0.000
12:38pm           287          3          3         45       75.8       48.6      29.92      40.21       48.1       48.9       28.2      30.03         -1       0.03       0.00       0.13      0.000
12:39pm           252          4          4         45       75.8       48.6      29.92      40.21       47.3       48.9       28.2      30.03          0       0.03       0.00       0.13      0.000
12:40pm           284          3          4         45       75.8       48.7      29.92      40.21       48.2       49.0       28.3      30.03         -1       0.03       0.00       0.13      0.000
12:41pm           253          2          7         45       75.9       48.7      29.92      40.21       48.7       49.0       28.3      30.03          0       0.03       0.00       0.13      0.000
12:42pm           204          6          9         45       75.9       48.6      29.92      40.21       46.0       48.9       28.2      30.03          0       0.03       0.00       0.13      0.000
12:43pm           242          1          6         45       75.8       48.6      29.92      40.21       48.6       48.9       28.2      30.03         -1       0.03       0.00       0.13      0.000
12:44pm           185          6          9         45       75.8       48.6      29.92      40.21       46.0       48.9       28.2      30.03         -1       0.03       0.00       0.13      0.000
12:45pm           238          1          6         45       75.9       48.5      29.92      40.21       48.5       48.8       28.1      30.03          0       0.03       0.00       0.13      0.000
12:46pm           249          4          6         45       75.9       48.4      29.92      40.21       47.0       48.7       28.1      30.03          0       0.03       0.00       0.12      0.000
12:47pm           240          7          7         45       75.9       48.3      29.92      40.21       45.1       48.6       28.0      30.03          2       0.03       0.00       0.12      0.000
12:48pm           229          2          7         45       75.9       48.3      29.92      40.21       48.3       48.6       28.0      30.03          2       0.03       0.00       0.12      0.000
12:49pm           270          4          5         46       75.9       48.3      29.92      40.21       46.9       48.7       28.5      30.03          2       0.03       0.00       0.12      0.000
12:50pm           245          5          5         44       75.9       48.3      29.92      40.21       46.2       48.6       27.4      30.03          3       0.03       0.00       0.12      0.000
12:51pm           221          2          5         45       75.9       48.3      29.92      40.21       48.3       48.6       28.0      30.03          4       0.03       0.00       0.12      0.000
12:52pm           229          2          5         45       75.9       48.3      29.91      40.21       48.3       48.6       28.0      30.02          8       0.03       0.00       0.12      0.000
12:53pm           205          3          5         44       75.9       48.2      29.91      40.21       47.6       48.5       27.3      30.02          8       0.03       0.00       0.12      0.000
12:54pm           242          6          6         44       75.9       48.2      29.91      40.21       45.5       48.5       27.3      30.02          8       0.03       0.00       0.12      0.000
12:55pm           230          2          8         46       75.9       48.2      29.91      40.21       48.2       48.6       28.4      30.02          8       0.03       0.00       0.12      0.000
12:56pm           275          3          4         47       75.9       48.3      29.91      40.21       47.8       48.8       29.0      30.02          8       0.03       0.00       0.12      0.000
12:57pm           269          2          5         45       75.9       48.4      29.91      40.21       48.4       48.7       28.1      30.02          8       0.03       0.00       0.12      0.000
12:58pm           218          1          4         43       75.9       48.4      29.91      40.21       48.4       48.6       27.0      30.02          9       0.03       0.00       0.12      0.000
12:59pm           192          3          4         43       75.9       48.2      29.91      40.21       47.6       48.4       26.8      30.02          9       0.03       0.00       0.12      0.000
1:00pm            243          3          5         43       75.9       48.2      29.91      40.21       47.6       48.4       26.8      30.02          9       0.03       0.00       0.11      0.000
1:01pm            244          2          3         45       75.9       48.2      29.91      40.21       48.2       48.5       27.9      30.02         11       0.03       0.00       0.11      0.000
1:02pm            328          4          4         45       75.9       48.2      29.91      40.21       46.8       48.5       27.9      30.02         12       0.03       0.00       0.11      0.000
1:03pm            221          3          5         44       75.9       48.2      29.91      40.21       47.6       48.5       27.3      30.02         13       0.03       0.00       0.11      0.000
1:04pm            221          1          3         44       75.9       48.1      29.91      40.21       48.1       48.4       27.2      30.02         13       0.03       0.00       0.11      0.000
1:05pm            212          4          4         44       75.9       48.1      29.90      40.21       46.7       48.4       27.2      30.01         15       0.03       0.00       0.11      0.000
1:06pm            212          2          4         44       75.9       48.1      29.90      40.21       48.1       48.4       27.2      30.01         15       0.03       0.00       0.11      0.000
1:07pm            193          3          3         45       75.9       48.2      29.91      40.21       47.6       48.5       27.9      30.02         13       0.03       0.00       0.11      0.000
1:08pm            221          5          9         45       75.9       48.3      29.90      40.21       46.2       48.6       28.0      30.01         15       0.03       0.00       0.11      0.000
1:09pm            227          1          5         45       76.0       48.4      29.91      40.21       48.4       48.7       28.1      30.02         13       0.03       0.00       0.11      0.000
1:10pm            202          4          4         44       76.0       48.4      29.90      40.21       47.0       48.7       27.5      30.01         16       0.03       0.00       0.11      0.000
1:11pm            147          3          4         43       75.9       48.4      29.90      40.21       47.9       48.6       27.0      30.01         18       0.03       0.00       0.11      0.000
1:12pm            106          3          6         44       76.0       48.4      29.89      40.21       47.9       48.7       27.5      30.00         23       0.03       0.00       0.11      0.000
1:13pm            190          4          7         44       76.0       48.4      29.89      40.21       47.0       48.7       27.5      30.00         23       0.03       0.00       0.11      0.000
1:14pm            249          6          6         44       76.0       48.4      29.89      40.21       45.8       48.7       27.5      30.00         23       0.03       0.00       0.11      0.000
1:15pm            338          3          6         43       76.0       48.5      29.89      40.21       48.0       48.7       27.0      30.00         25       0.03       0.00       0.11      0.000
1:16pm            279          5          7         43       76.0       48.5      29.89      40.21       46.5       48.7       27.0      30.00         25       0.03       0.00       0.11      0.000
1:17pm            272          2          5         43       76.0       48.4      29.89      40.21       48.4       48.6       27.0      30.00         24       0.03       0.00       0.11      0.000
1:18pm            326          3          4         45       76.0       48.5      29.89      40.21       48.0       48.8       28.1      30.00         25       0.03       0.00       0.11      0.000
1:19pm            282          2          7         42       76.0       48.5      29.89      40.21       48.5       48.6       26.5      30.00         25       0.03       0.00       0.11      0.000
1:20pm            252          3          5         42       76.0       48.2      29.89      40.21       47.6       48.3       26.2      30.00         24       0.03       0.00       0.11      0.000
1:21pm            250          6          6         44       76.0       48.3      29.89      40.21       45.6       48.6       27.4      30.00         24       0.03       0.00       0.11      0.000
1:22pm            227          5          6         44       76.0       48.3      29.89      40.21       46.2       48.6       27.4      30.00         24       0.03       0.00       0.10      0.000
1:23pm            244          2          5         44       76.0       48.3      29.89      40.21       48.3       48.6       27.4      30.00         28       0.03       0.00       0.10      0.000
1:24pm            273          2          3         44       76.0       48.4      29.89      40.21       48.4       48.7       27.5      30.00         28       0.03       0.00       0.10      0.000
1:25pm            327          2          3         42       76.0       48.3      29.89      40.21       48.3       48.4       26.3      30.00         30       0.03       0.00       0.10      0.000
1:26pm            327          3          3         42       76.0       48.2      29.88      40.21       47.6       48.3       26.2      29.99         36       0.03       0.00       0.10      0.000
1:27pm            326          2          3         42       76.0       48.1      29.88      40.21       48.1       48.2       26.1      29.99         38       0.03       0.00       0.10      0.000
1:28pm            229          3          3         43       76.0       48.1      29.88      40.21       47.5       48.3       26.7      29.99         38       0.03       0.00       0.10      0.000
1:28pm            223          1          3         42       76.0       48.1      29.88      40.21       48.1       48.2       26.1      29.99         40       0.03       0.00       0.10      0.000
1:30pm            320          3          4         43       76.0       48.0      29.87      40.21       47.4       48.2       26.6      29.99         42       0.03       0.00       0.10      0.000
1:31pm            320          0          3         43       76.0       48.0      29.88      40.21       48.0       48.2       26.6      29.99         40       0.03       0.00       0.09      0.000
1:32pm             94          3          3         43       76.0       47.9      29.88      40.21       47.3       48.1       26.5      29.99         40       0.03       0.00       0.09      0.000
1:33pm            172          1          5         44       76.0       48.0      29.88      40.21       48.0       48.3       27.1      29.99         39       0.03       0.00       0.09      0.000
1:34pm            172          2          2         42       76.0       48.1      29.88      40.21       48.1       48.2       26.1      29.99         39       0.03       0.00       0.09      0.000
1:35pm            147          3          3         43       76.0       48.1      29.88      40.21       47.5       48.3       26.7      29.99         39       0.03       0.00       0.09      0.000
1:36pm            159          1          5         44       76.0       48.2      29.88      40.21       48.2       48.5       27.3      29.99         39       0.03       0.00       0.09      0.000
1:37pm            195          2          4         44       76.0       48.4      29.88      40.21       48.4       48.7       27.5      29.99         38       0.03       0.00       0.09      0.000
1:38pm            221          3          4         42       76.0       48.5      29.88      40.21       48.0       48.6       26.5      29.99         38       0.03       0.00       0.09      0.000
1:39pm            201          5          5         43       76.0       48.6      29.88      40.21       46.6       48.8       27.1      29.99         38       0.03       0.00       0.09      0.000
1:40pm            231          2          5         45       76.0       48.7      29.88      40.21       48.7       49.0       28.3      29.99         37       0.03       0.00       0.09      0.000
1:41pm            241          2          3         44       76.0       48.9      29.88      40.21       48.9       49.2       28.0      29.99         37       0.03       0.00       0.09      0.000
1:42pm            304          3          5         44       76.0       49.0      29.88      40.21       48.5       49.3       28.1      29.99         37       0.03       0.00       0.09      0.000
1:43pm            302          2          3         43       76.0       49.1      29.88      40.21       49.1       49.3       27.6      29.99         37       0.03       0.00       0.09      0.000
1:44pm            252          3          4         43       76.0       49.0      29.88      40.21       48.5       49.2       27.5      29.99         36       0.03       0.00       0.09      0.000
1:45pm            280          1          3         42       76.0       49.0      29.88      40.21       49.0       49.1       26.9      29.99         37       0.03       0.00       0.09      0.000
1:46pm            280          2          3         44       76.0       49.1      29.88      40.21       49.1       49.4       28.1      29.99         39       0.03       0.00       0.09      0.000
1:47pm            258          1          4         43       76.0       49.2      29.88      40.21       49.2       49.4       27.7      29.99         39       0.03       0.00       0.08      0.000
1:48pm            291          3          4         43       76.0       49.2      29.88      40.21       48.8       49.4       27.7      29.99         38       0.03       0.00       0.08      0.000
1:49pm            356          4          6         43       76.0       49.2      29.88      40.21       47.9       49.4       27.7      29.99         41       0.03       0.00       0.08      0.000
1:50pm            290          2          5         43       76.0       49.2      29.87      40.21       49.2       49.4       27.7      29.99         42       0.03       0.00       0.08      0.000
1:51pm            229          4          5         44       76.0       49.3      29.87      40.21       48.1       49.6       28.3      29.99         42       0.03       0.00       0.08      0.000
1:52pm            200          3          5         43       76.0       49.4      29.87      40.21       49.0       49.6       27.9      29.98         44       0.03       0.00       0.08      0.000
1:53pm            200          1          4         42       76.0       49.4      29.87      40.21       49.4       49.5       27.3      29.98         44       0.03       0.00       0.08      0.000
1:54pm            205          0          3         42       76.0       49.3      29.87      40.21       49.3       49.4       27.2      29.98         44       0.03       0.00       0.08      0.000
1:55pm            205          0          1         41       76.0       49.3      29.87      40.21       49.3       49.3       26.6      29.98         44       0.03       0.00       0.08      0.000
1:56pm            192          3          4         41       76.0       49.0      29.87      40.21       48.5       49.0       26.3      29.98         45       0.03       0.00       0.08      0.000
1:57pm            232          5          7         42       76.1       48.9      29.87      40.21       46.9       49.0       26.8      29.98         44       0.03       0.00       0.08      0.000
1:58pm            255          1          6         43       76.1       49.0      29.87      40.21       49.0       49.2       27.5      29.98         44       0.03       0.00       0.08      0.000
1:59pm            218          4          4         43       76.1       49.0      29.87      40.21       47.7       49.2       27.5      29.98         44       0.03       0.00       0.08      0.000
2:00pm            219          2          4         42       76.1       48.9      29.87      40.21       48.9       49.0       26.8      29.98         44       0.03       0.00       0.08      0.000
2:01pm            333          4          4         43       76.1       48.9      29.87      40.21       47.6       49.1       27.4      29.98         44       0.03       0.00       0.08      0.000
2:02pm            335          4          5         42       76.1       48.9      29.87      40.21       47.6       49.0       26.8      29.98         44       0.03       0.00       0.08      0.000
2:03pm            243          2          4         42       76.1       48.8      29.87      40.21       48.8       48.9       26.7      29.98         45       0.03       0.00       0.08      0.000
2:04pm            234          0          3         43       76.1       48.7      29.87      40.21       48.7       48.9       27.2      29.98         45       0.03       0.00       0.08      0.000
2:05pm            234          0          1         42       76.1       48.6      29.87      40.21       48.6       48.7       26.6      29.98         46       0.03       0.00       0.08      0.000
2:06pm            313          2          3         42       76.1       48.5      29.87      40.21       48.5       48.6       26.5      29.98         47       0.03       0.00       0.08      0.000
2:07pm            322          2          3         41       76.1       48.4      29.87      40.21       48.4       48.4       25.8      29.98         47       0.03       0.00       0.07      0.000
2:08pm            322          2          3         42       76.1       48.3      29.87      40.21       48.3       48.4       26.3      29.98         48       0.03       0.00       0.07      0.000
2:09pm            333          2          3         41       76.1       48.2      29.87      40.21       48.2       48.2       25.6      29.98         48       0.03       0.00       0.07      0.000
2:10pm              1          1          3         41       76.1       48.1      29.87      40.21       48.1       48.1       25.5      29.98         47       0.03       0.00       0.07      0.000
2:11pm              1          0          1         42       76.1       48.0      29.87      40.21       48.0       48.1       26.0      29.98         47       0.03       0.00       0.07      0.000
2:12pm            203          3          3         44       76.1       47.9      29.87      40.21       47.3       48.2       27.1      29.98         47       0.03       0.00       0.07      0.000
2:13pm            203          2          3         44       76.1       48.1      29.87      40.21       48.1       48.4       27.2      29.98         46       0.03       0.00       0.07      0.000
2:14pm            203          1          2         44       76.1       48.2      29.87      40.21       48.2       48.5       27.3      29.98         46       0.03       0.00       0.07      0.000
2:15pm            203          1          2         43       76.1       48.4      29.87      40.21       48.4       48.6       27.0      29.98         45       0.03       0.00       0.07      0.000
2:16pm            203          0          1         42       76.1       48.5      29.87      40.21       48.5       48.6       26.5      29.98         44       0.03       0.00       0.07      0.000
2:17pm            203          2          2         43       76.1       48.5      29.87      40.21       48.5       48.7       27.0      29.98         44       0.03       0.00       0.07      0.000
2:18pm            176          2          3         43       76.1       48.6      29.87      40.21       48.6       48.8       27.1      29.98         45       0.03       0.00       0.07      0.000
2:19pm            176          0          2         42       76.1       48.7      29.87      40.21       48.7       48.8       26.7      29.98         45       0.03       0.00       0.07      0.000
2:20pm            220          3          4         41       76.1       48.8      29.87      40.21       48.3       48.8       26.2      29.98         44       0.03       0.00       0.06      0.000
2:21pm            225          2          5         43       76.1       49.0      29.87      40.21       49.0       49.2       27.5      29.98         45       0.03       0.00       0.06      0.000
2:22pm            220          4          5         43       76.1       49.1      29.87      40.21       47.8       49.3       27.6      29.98         45       0.03       0.00       0.06      0.000
2:23pm            224          1          4         42       76.1       49.2      29.87      40.21       49.2       49.3       27.1      29.98         45       0.03       0.00       0.06      0.000
2:24pm            222          2          3         42       76.1       49.2      29.87      40.21       49.2       49.3       27.1      29.98         45       0.03       0.00       0.06      0.000
2:25pm            222          2          3         41       76.1       49.2      29.87      40.21       49.2       49.2       26.5      29.98         45       0.03       0.00       0.06      0.000
2:26pm            222          2          2         41       76.2       49.2      29.87      40.21       49.2       49.2       26.5      29.98         46       0.03       0.00       0.06      0.000
2:27pm            222          1          2         41       76.2       49.3      29.87      40.21       49.3       49.3       26.6      29.98         44       0.03       0.00       0.06      0.000
2:28pm            204          2          4         41       76.2       49.4      29.87      40.21       49.4       49.4       26.7      29.98         43       0.03       0.00       0.06      0.000
2:29pm            205          2          3         41       76.2       49.5      29.87      40.21       49.5       49.5       26.8      29.98         43       0.03       0.00       0.06      0.000
2:30pm            212          4          5         41       76.2       49.5      29.88      40.21       48.3       49.5       26.8      29.99         40       0.03       0.00       0.06      0.000
2:31pm            214          3          4         41       76.2       49.5      29.88      40.21       49.1       49.5       26.8      29.99         41       0.03       0.00       0.06      0.000
2:32pm            208          2          4         42       76.2       49.5      29.88      40.21       49.5       49.6       27.4      29.99         41       0.03       0.00       0.06      0.000
2:33pm            208          1          2         41       76.2       49.5      29.87      40.21       49.5       49.5       26.8      29.98         44       0.03       0.00       0.06      0.000
2:34pm            151          1          4         40       76.2       49.4      29.87      40.21       49.4       49.3       26.1      29.98         45       0.03       0.00       0.06      0.000
2:35pm            152          2          3         40       76.2       49.4      29.87      40.21       49.4       49.3       26.1      29.98         45       0.03       0.00       0.05      0.000
2:36pm            148          3          3         42       76.1       49.4      29.87      40.21       49.0       49.5       27.3      29.98         44       0.03       0.00       0.05      0.000
2:37pm            167          2          4         41       76.1       49.4      29.87      40.21       49.4       49.4       26.7      29.98         44       0.03       0.00       0.05      0.000
2:38pm            167          2          2         42       76.2       49.5      29.87      40.21       49.5       49.6       27.4      29.98         43       0.03       0.00       0.05      0.000
2:39pm            167          1          2         41       76.2       49.6      29.87      40.21       49.6       49.6       26.9      29.98         43       0.03       0.00       0.05      0.000
2:40pm            167          0          3         41       76.2       49.7      29.87      40.21       49.7       49.7       27.0      29.98         43       0.03       0.00       0.05      0.000
2:41pm            176          2          2         42       76.2       49.7      29.87      40.21       49.7       49.8       27.6      29.98         43       0.03       0.00       0.05      0.000
2:42pm            179          2          2         41       76.2       49.7      29.87      40.21       49.7       49.7       27.0      29.98         43       0.03       0.00       0.05      0.000
2:43pm            181          1          3         42       76.2       49.7      29.87      40.21       49.7       49.8       27.6      29.98         43       0.03       0.00       0.05      0.000
2:44pm            207          6          7         41       76.2       49.8      29.87      40.21       47.4       49.8       27.1      29.98         43       0.03       0.00       0.05      0.000
2:45pm            203          1          6         41       76.2       49.7      29.87      40.21       49.7       49.7       27.0      29.98         44       0.03       0.00       0.05      0.000
2:46pm            203          2          2         41       76.2       49.7      29.87      40.21       49.7       49.7       27.0      29.98         44       0.03       0.00       0.05      0.000
2:47pm            203          0          2         41       76.2       49.6      29.87      40.21       49.6       49.6       26.9      29.98         44       0.03       0.00       0.05      0.000
2:48pm            203          1          2         41       76.2       49.5      29.87      40.21       49.5       49.5       26.8      29.98         44       0.03       0.00       0.05      0.000
2:49pm            219          5          5         41       76.2       49.6      29.87      40.21       47.7       49.6       26.9      29.98         45       0.03       0.00       0.05      0.000
2:50pm            223          2          5         41       76.2       49.6      29.87      40.21       49.6       49.6       26.9      29.98         45       0.03       0.00       0.05      0.000
2:51pm            223          2          2         41       76.2       49.6      29.87      40.21       49.6       49.6       26.9      29.98         45       0.03       0.00       0.05      0.000
2:52pm            211          3          5         41       76.2       49.6      29.87      40.21       49.2       49.6       26.9      29.98         46       0.03       0.00       0.05      0.000
2:53pm            184          3          7         41       76.2       49.5      29.87      40.21       49.1       49.5       26.8      29.98         46       0.03       0.00       0.05      0.000
2:54pm            139          4          4         40       76.2       49.5      29.87      40.21       48.3       49.4       26.2      29.98         46       0.03       0.00       0.05      0.000
2:55pm            139          4          4         41       76.2       49.4      29.87      40.21       48.2       49.4       26.7      29.98         46       0.03       0.00       0.05      0.000
2:56pm            134          2          4         41       76.2       49.4      29.87      40.21       49.4       49.4       26.7      29.98         48       0.03       0.00       0.05      0.000
2:57pm            203          3          5         41       76.2       49.4      29.87      40.21       49.0       49.4       26.7      29.98         48       0.03       0.00       0.05      0.000
2:58pm            188          2          4         41       76.2       49.4      29.87      40.21       49.4       49.4       26.7      29.98         48       0.03       0.00       0.05      0.000
2:59pm            169          2          4         41       76.2       49.4      29.87      40.21       49.4       49.4       26.7      29.98         46       0.03       0.00       0.05      0.000
3:00pm            169          2          2         41       76.2       49.3      29.87      40.21       49.3       49.3       26.6      29.98         46       0.03       0.00       0.05      0.000
3:01pm            161          3          4         40       76.2       49.3      29.87      40.21       48.9       49.2       26.0      29.98         46       0.03       0.00       0.05      0.000
3:02pm            161          0          3         40       76.2       49.3      29.87      40.21       49.3       49.2       26.0      29.98         46       0.03       0.00       0.05      0.000
3:03pm            161          2          2         41       76.2       49.3      29.87      40.21       49.3       49.3       26.6      29.98         46       0.03       0.00       0.05      0.000
3:04pm            161          2          2         41       76.2       49.2      29.87      40.21       49.2       49.2       26.5      29.98         47       0.03       0.00       0.05      0.000
3:05pm            176          1          3         41       76.2       49.2      29.87      40.21       49.2       49.2       26.5      29.98         48       0.03       0.00       0.04      0.000
3:06pm            176          1          2         40       76.2       49.2      29.87      40.21       49.2       49.1       25.9      29.98         50       0.03       0.00       0.04      0.000
3:07pm            154          2          3         40       76.2       49.1      29.86      40.21       49.1       49.0       25.8      29.98         51       0.03       0.00       0.04      0.000
3:08pm            114          3          3         41       76.2       49.1      29.87      40.21       48.7       49.1       26.4      29.98         50       0.03       0.00       0.04      0.000
3:09pm            134          4          4         42       76.2       49.1      29.87      40.21       47.8       49.2       27.0      29.98         50       0.03       0.00       0.04      0.000
3:10pm            133          3          4         41       76.2       49.1      29.87      40.21       48.7       49.1       26.4      29.98         50       0.03       0.00       0.04      0.000
3:11pm            128          2          4         41       76.2       49.1      29.87      40.21       49.1       49.1       26.4      29.98         49       0.03       0.00       0.04      0.000
3:12pm            127          3          3         41       76.2       49.1      29.86      40.21       48.7       49.1       26.4      29.98         51       0.03       0.00       0.04      0.000
3:13pm            127          1          4         41       76.2       49.1      29.87      40.21       49.1       49.1       26.4      29.98         50       0.03       0.00       0.04      0.000
3:14pm            148          3          4         42       76.2       49.1      29.87      40.21       48.7       49.2       27.0      29.98         50       0.03       0.00       0.04      0.000
3:15pm            130          2          3         41       76.3       49.1      29.86      40.21       49.1       49.1       26.4      29.98         51       0.03       0.00       0.04      0.000
3:16pm            130          2          3         41       76.2       49.1      29.86      40.21       49.1       49.1       26.4      29.97         53       0.03       0.00       0.04      0.000
3:17pm            131          2          3         41       76.3       49.1      29.86      40.21       49.1       49.1       26.4      29.97         55       0.03       0.00       0.04      0.000
3:18pm            140          3          4         41       76.3       49.1      29.86      40.21       48.7       49.1       26.4      29.97         56       0.03       0.00       0.04      0.000
3:19pm            131          3          4         41       76.3       49.1      29.86      40.21       48.7       49.1       26.4      29.97         56       0.03       0.00       0.04      0.000
3:20pm            132          2          3         41       76.3       49.1      29.86      40.21       49.1       49.1       26.4      29.97         56       0.03       0.00       0.04      0.000
3:21pm            134          4          4         41       76.3       49.1      29.86      40.21       47.8       49.1       26.4      29.97         57       0.03       0.00       0.04      0.000
3:22pm            146          2          4         41       76.3       49.1      29.86      40.21       49.1       49.1       26.4      29.97         57       0.03       0.00       0.04      0.000
3:23pm            141          4          4         41       76.3       49.1      29.86      40.21       47.8       49.1       26.4      29.97         57       0.03       0.00       0.04      0.000
3:24pm            147          2          5         41       76.3       49.1      29.86      40.21       49.1       49.1       26.4      29.97         57       0.03       0.00       0.04      0.000
3:25pm            143          3          4         41       76.3       49.1      29.86      40.21       48.7       49.1       26.4      29.97         57       0.03       0.00       0.04      0.000
3:25pm            139          3          4         41       76.3       49.1      29.86      40.21       48.7       49.1       26.4      29.97         56       0.03       0.00       0.04      0.000
3:27pm            181          1          3         40       76.3       49.0      29.86      40.21       49.0       48.9       25.7      29.97         54       0.03       0.00       0.04      0.000
3:28pm            176          1          2         41       76.3       49.1      29.86      40.21       49.1       49.1       26.4      29.97         54       0.03       0.00       0.04      0.000
3:29pm            181          1          3         41       76.3       49.1      29.86      40.21       49.1       49.1       26.4      29.97         54       0.03       0.00       0.04      0.000
3:30pm            188          3          4         41       76.3       49.1      29.86      40.21       48.7       49.1       26.4      29.97         53       0.03       0.00       0.04      0.000
3:31pm            189          1          4         41       76.3       49.1      29.86      40.21       49.1       49.1       26.4      29.97         52       0.03       0.00       0.04      0.000
3:32pm            159          1          4         41       76.3       49.0      29.86      40.21       49.0       49.0       26.3      29.97         52       0.03       0.00       0.04      0.000
3:33pm            168          1          3         41       76.3       49.1      29.86      40.21       49.1       49.1       26.4      29.97         53       0.03       0.00       0.04      0.000
3:33pm            148          4          4         41       76.3       49.1      29.86      40.21       47.8       49.1       26.4      29.97         52       0.03       0.00       0.04      0.000
3:35pm            171          3          5         42       76.3       49.1      29.86      40.21       48.7       49.2       27.0      29.98         51       0.03       0.00       0.04      0.000
3:36pm            160          1          4         41       76.3       49.1      29.86      40.21       49.1       49.1       26.4      29.98         51       0.03       0.00       0.04      0.000
3:37pm            149          2          4         42       76.3       49.1      29.86      40.21       49.1       49.2       27.0      29.98         51       0.03       0.00       0.04      0.000
3:38pm            160          2          3         42       76.3       49.1      29.87      40.21       49.1       49.2       27.0      29.98         48       0.03       0.00       0.04      0.000
3:39pm            176          2          5         42       76.3       49.0      29.87      40.21       49.0       49.1       26.9      29.98         48       0.03       0.00       0.04      0.000
3:40pm            165          1          3         41       76.3       49.0      29.87      40.21       49.0       49.0       26.3      29.98         46       0.03       0.00       0.04      0.000
3:41pm            167          1          3         41       76.3       49.0      29.87      40.21       49.0       49.0       26.3      29.98         45       0.03       0.00       0.04      0.000
3:42pm            167          1          2         41       76.3       48.9      29.87      40.21       48.9       48.9       26.3      29.98         45       0.03       0.00       0.04      0.000
3:43pm            148          3          4         42       76.3       48.9      29.87      40.21       48.4       49.0       26.8      29.98         44       0.03       0.00       0.04      0.000
3:44pm            189          3          4         41       76.2       48.8      29.87      40.21       48.3       48.8       26.2      29.98         45       0.03       0.00       0.04      0.000
3:45pm            152          2          3         41       76.2       48.8      29.87      40.21       48.8       48.8       26.2      29.98         44       0.03       0.00       0.04      0.000
3:46pm            193          4          5         41       76.2       48.8      29.87      40.21       47.5       48.8       26.2      29.98         44       0.03       0.00       0.04      0.000
3:47pm            146          4          4         41       76.2       48.7      29.87      40.21       47.4       48.7       26.1      29.98         44       0.03       0.00       0.04      0.000
3:48pm            141          2          5         42       76.2       48.7      29.87      40.21       48.7       48.8       26.7      29.99         42       0.03       0.00       0.04      0.000
3:49pm            192          3          5         42       76.2       48.7      29.88      40.21       48.2       48.8       26.7      29.99         41       0.03       0.00       0.04      0.000
3:50pm            184          2          4         42       76.2       48.7      29.88      40.21       48.7       48.8       26.7      29.99         41       0.03       0.00       0.04      0.000
3:51pm            198          2          4         42       76.2       48.7      29.88      40.21       48.7       48.8       26.7      29.99         41       0.03       0.00       0.04      0.000
3:52pm            117          4          4         42       76.2       48.7      29.87      40.21       47.4       48.8       26.7      29.99         42       0.03       0.00       0.04      0.000
3:53pm            146          1          4         42       76.2       48.8      29.87      40.21       48.8       48.9       26.7      29.99         42       0.03       0.00       0.04      0.000
3:54pm            146          4          4         42       76.2       48.8      29.87      40.21       47.5       48.9       26.7      29.98         44       0.03       0.00       0.04      0.000
3:55pm            172          2          4         42       76.2       48.8      29.87      40.21       48.8       48.9       26.7      29.98         44       0.03       0.00       0.04      0.000
3:56pm            133          3          4         42       76.2       48.8      29.87      40.21       48.3       48.9       26.7      29.99         42       0.03       0.00       0.04      0.000
3:57pm            155          2          3         42       76.2       48.8      29.88      40.21       48.8       48.9       26.7      29.99         38       0.03       0.00       0.04      0.000
3:58pm            232          2          4         42       76.2       48.8      29.88      40.21       48.8       48.9       26.7      29.99         38       0.03       0.00       0.04      0.000

Updated Automatically by Ambient Weather's Virtual Weather Station  V15.00
All rights reserved. Unauthorized duplication or distribution is prohibited
Never base important decisions on this or any weather information obtained from the Internet